Darstellungsparameter: Aktuell verwendete Einstellungen:
Skalierung der Graphiken ... ?
xyx+y,   Skalierungsfaktor:      Skalierung: Modus: x, Faktor: 1
Darstellungszeitraum ... ?
Vom - - bis: - -   Zeitraum: 25.09.2020 - 29.09.2020
Min/Max/Avg-Anzeige ... ?
Zeige MMA aktuell
Zeige MMA Monat
Zeige MMA alles
Zeige --A aktuell
Zeige --A Monat
Zeige --A alles
Keine MMA-Anzeige
MMA:
Average (ber die Originaldaten)
MMA-Basis: 25.09.2020 - 29.09.2020
Quicknavigation für Darstellung... ?
Tage:      1T, 2T, 3T, 5T -1T -2T -3T -5T +1T +2T +3T +5T
Wochen: 1W, 2W, 3W -1W -2W -3W +1W +2W +3W
Monate: 1M, 3M, 6M -1M -3M -6M +1M +3M +6M
Jahre:    1J, 3J, 5J, 10J -1J -3J -5J -10J +1J +3J +5J +10J
Nutze für die Darstellung ... ?
Originaldaten oder Mittelwerte auf ...
Stundenbasis Tagesbasis Wochenbasis
Monatsbasis Jahresbasis      Datenbasis: Original-Daten
Darstellen als:
Statistik (Auto) Statistik J:M      Darstellung:
Zur Graphik,    zurück zur Übersicht aller Sensoren.
 
Tabellarische Datenbersicht: ?
 
Sensor: Nr:Datum:Temp:Abs-Feuchte:Windchill:Wind:
Aussen-T/F 1 25-09-2020 00:00:00 13.6 C 10.47 g/m*3 13.6 C 0 km/h
2 25-09-2020 00:05:00 13.6 C 10.59 g/m*3 13.6 C 0 km/h
3 25-09-2020 00:10:00 13.6 C 10.47 g/m*3 13.6 C 0 km/h
4 25-09-2020 00:15:00 13.5 C 10.53 g/m*3 13.5 C 0 km/h
5 25-09-2020 00:20:00 13.6 C 10.59 g/m*3 13.6 C 1.6 km/h
6 25-09-2020 00:25:00 13.6 C 10.59 g/m*3 13.6 C 0 km/h
7 25-09-2020 00:30:00 13.7 C 10.66 g/m*3 13.7 C 0 km/h
8 25-09-2020 00:35:00 13.7 C 10.66 g/m*3 13.7 C 0 km/h
9 25-09-2020 00:40:00 13.8 C 10.72 g/m*3 13.8 C 0 km/h
10 25-09-2020 00:45:00 13.8 C 10.72 g/m*3 13.8 C 0 km/h
11 25-09-2020 00:50:00 13.8 C 10.72 g/m*3 13.8 C 0 km/h
12 25-09-2020 00:55:00 13.8 C 10.72 g/m*3 13.8 C 0 km/h
13 25-09-2020 01:00:00 13.9 C 10.79 g/m*3 13.9 C 1.6 km/h
14 25-09-2020 01:05:00 13.9 C 10.79 g/m*3 13.9 C 3.2 km/h
15 25-09-2020 01:10:00 13.9 C 10.79 g/m*3 13.9 C 3.2 km/h
16 25-09-2020 01:15:00 13.9 C 10.79 g/m*3 13.9 C 0 km/h
17 25-09-2020 01:20:00 14 C 10.86 g/m*3 14 C 0 km/h
18 25-09-2020 01:25:00 14 C 10.86 g/m*3 14 C 1.6 km/h
19 25-09-2020 01:30:00 14 C 10.86 g/m*3 14 C 0 km/h
20 25-09-2020 01:35:00 14 C 10.86 g/m*3 14 C 0 km/h
21 25-09-2020 01:40:00 13.9 C 10.79 g/m*3 13.9 C 0 km/h
22 25-09-2020 01:45:00 13.9 C 10.79 g/m*3 13.9 C 0 km/h
23 25-09-2020 01:50:00 13.9 C 10.67 g/m*3 13.9 C 1.6 km/h
24 25-09-2020 01:55:00 13.8 C 10.6 g/m*3 13.8 C 0 km/h
25 25-09-2020 02:00:00 13.8 C 10.72 g/m*3 13.8 C 0 km/h
Sensor: Nr:Datum:Temp:Abs-Feuchte:Windchill:Wind:
Aussen-T/F 26 25-09-2020 02:05:00 13.8 C 10.72 g/m*3 13.8 C 0 km/h
27 25-09-2020 02:10:00 13.8 C 10.72 g/m*3 13.8 C 1.6 km/h
28 25-09-2020 02:15:00 13.8 C 10.72 g/m*3 13.8 C 4.8 km/h
29 25-09-2020 02:20:00 14 C 10.74 g/m*3 14 C 4.8 km/h
30 25-09-2020 02:25:00 14.1 C 10.8 g/m*3 14.1 C 3.2 km/h
31 25-09-2020 02:30:00 14.2 C 10.87 g/m*3 14.2 C 14.5 km/h
32 25-09-2020 02:35:00 14.2 C 10.5 g/m*3 14.2 C 25.7 km/h
33 25-09-2020 02:40:00 13.8 C 10.37 g/m*3 13.8 C 25.7 km/h
34 25-09-2020 02:45:00 13.4 C 10.11 g/m*3 13.4 C 14.5 km/h
35 25-09-2020 02:50:00 13.1 C 10.04 g/m*3 13.1 C 14.5 km/h
36 25-09-2020 02:55:00 12.8 C 9.97 g/m*3 12.8 C 11.3 km/h
37 25-09-2020 03:00:00 12.7 C 10.02 g/m*3 12.7 C 9.7 km/h
38 25-09-2020 03:05:00 12.5 C 9.89 g/m*3 12.5 C 12.9 km/h
39 25-09-2020 03:10:00 12.4 C 9.94 g/m*3 12.4 C 9.7 km/h
40 25-09-2020 03:15:00 12.4 C 10.05 g/m*3 12.4 C 9.7 km/h
41 25-09-2020 03:20:00 12.3 C 9.99 g/m*3 12.3 C 12.9 km/h
42 25-09-2020 03:25:00 12.2 C 9.93 g/m*3 12.2 C 11.3 km/h
43 25-09-2020 03:30:00 12.2 C 9.93 g/m*3 12.2 C 3.2 km/h
44 25-09-2020 03:35:00 12.1 C 9.87 g/m*3 12.1 C 6.4 km/h
45 25-09-2020 03:40:00 11.9 C 9.74 g/m*3 11.9 C 9.7 km/h
46 25-09-2020 03:45:00 11.8 C 9.58 g/m*3 11.8 C 6.4 km/h
47 25-09-2020 03:50:00 11.7 C 9.52 g/m*3 11.7 C 6.4 km/h
48 25-09-2020 03:55:00 11.6 C 9.46 g/m*3 11.6 C 4.8 km/h
49 25-09-2020 04:00:00 11.5 C 9.5 g/m*3 11.5 C 6.4 km/h
50 25-09-2020 04:05:00 11.4 C 9.44 g/m*3 11.4 C 6.4 km/h
Sensor: Nr:Datum:Temp:Abs-Feuchte:Windchill:Wind:
Aussen-T/F 51 25-09-2020 04:10:00 11.4 C 9.44 g/m*3 11.4 C 1.6 km/h
52 25-09-2020 04:15:00 11.4 C 9.44 g/m*3 11.4 C 0 km/h
53 25-09-2020 04:20:00 11.3 C 9.38 g/m*3 11.3 C 0 km/h
54 25-09-2020 04:25:00 11.3 C 9.49 g/m*3 11.3 C 1.6 km/h
55 25-09-2020 04:30:00 11.3 C 9.49 g/m*3 11.3 C 6.4 km/h
56 25-09-2020 04:35:00 11.3 C 9.49 g/m*3 11.3 C 3.2 km/h
57 25-09-2020 04:40:00 11.2 C 9.43 g/m*3 11.2 C 3.2 km/h
58 25-09-2020 04:45:00 11.1 C 9.27 g/m*3 11.1 C 6.4 km/h
59 25-09-2020 04:50:00 11.1 C 9.37 g/m*3 11.1 C 3.2 km/h
60 25-09-2020 04:55:00 11 C 9.31 g/m*3 11 C 3.2 km/h
61 25-09-2020 05:00:00 10.9 C 9.25 g/m*3 10.41 C 6.4 km/h
62 25-09-2020 05:05:00 10.8 C 9.19 g/m*3 10.8 C 4.8 km/h
63 25-09-2020 05:10:00 10.8 C 9.19 g/m*3 10.8 C 3.2 km/h
64 25-09-2020 05:15:00 10.7 C 9.13 g/m*3 10.7 C 0 km/h
65 25-09-2020 05:20:00 10.7 C 9.13 g/m*3 10.7 C 4.8 km/h
66 25-09-2020 05:25:00 10.7 C 9.13 g/m*3 10.7 C 1.6 km/h
67 25-09-2020 05:30:00 10.7 C 9.13 g/m*3 9.81 C 8.1 km/h
68 25-09-2020 05:35:00 10.7 C 9.13 g/m*3 10.7 C 3.2 km/h
69 25-09-2020 05:40:00 10.8 C 9.29 g/m*3 10.8 C 3.2 km/h
70 25-09-2020 05:45:00 10.8 C 9.29 g/m*3 10.29 C 6.4 km/h
71 25-09-2020 05:50:00 10.8 C 9.29 g/m*3 10.29 C 6.4 km/h
72 25-09-2020 05:55:00 10.8 C 9.19 g/m*3 10.8 C 4.8 km/h
73 25-09-2020 06:00:00 10.8 C 9.19 g/m*3 10.8 C 4.8 km/h
74 25-09-2020 06:05:00 10.8 C 9.19 g/m*3 10.29 C 6.4 km/h
75 25-09-2020 06:10:00 10.8 C 9.19 g/m*3 9.64 C 9.7 km/h
Sensor: Nr:Datum:Temp:Abs-Feuchte:Windchill:Wind:
Aussen-T/F 76 25-09-2020 06:15:00 10.7 C 9.13 g/m*3 10.18 C 6.4 km/h
77 25-09-2020 06:20:00 10.6 C 9.08 g/m*3 10.6 C 4.8 km/h
78 25-09-2020 06:25:00 10.6 C 9.08 g/m*3 10.6 C 3.2 km/h
79 25-09-2020 06:30:00 10.5 C 8.92 g/m*3 10.5 C 3.2 km/h
80 25-09-2020 06:35:00 10.4 C 8.87 g/m*3 10.4 C 4.8 km/h
81 25-09-2020 06:40:00 10.3 C 8.81 g/m*3 10.3 C 3.2 km/h
82 25-09-2020 06:45:00 10.2 C 8.76 g/m*3 9.6 C 6.4 km/h
83 25-09-2020 06:50:00 10.2 C 8.76 g/m*3 9.6 C 6.4 km/h
84 25-09-2020 06:55:00 10.2 C 8.76 g/m*3 9.22 C 8.1 km/h
85 25-09-2020 07:00:00 10.1 C 8.7 g/m*3 10.1 C 4.8 km/h
86 25-09-2020 07:05:00 10.1 C 8.7 g/m*3 8.8 C 9.7 km/h
87 25-09-2020 07:10:00 10.1 C 8.61 g/m*3 9.1 C 8.1 km/h
88 25-09-2020 07:15:00 10.1 C 8.61 g/m*3 9.48 C 6.4 km/h
89 25-09-2020 07:20:00 10 C 8.55 g/m*3 10 C 0 km/h
90 25-09-2020 07:25:00 9.9 C 8.5 g/m*3 9.9 C 1.6 km/h
91 25-09-2020 07:30:00 9.8 C 8.44 g/m*3 9.8 C 3.2 km/h
92 25-09-2020 07:35:00 9.7 C 8.39 g/m*3 9.02 C 6.4 km/h
93 25-09-2020 07:40:00 9.7 C 8.48 g/m*3 9.7 C 1.6 km/h
94 25-09-2020 07:45:00 9.7 C 8.48 g/m*3 9.7 C 3.2 km/h
95 25-09-2020 07:50:00 9.7 C 8.48 g/m*3 8.33 C 9.7 km/h
96 25-09-2020 07:55:00 9.6 C 8.43 g/m*3 9.6 C 0 km/h
97 25-09-2020 08:00:00 9.6 C 8.43 g/m*3 9.6 C 1.6 km/h
98 25-09-2020 08:05:00 9.6 C 8.43 g/m*3 9.6 C 3.2 km/h
99 25-09-2020 08:10:00 9.6 C 8.43 g/m*3 9.6 C 0 km/h
100 25-09-2020 08:15:00 9.5 C 8.37 g/m*3 9.5 C 0 km/h
Sensor: Nr:Datum:Temp:Abs-Feuchte:Windchill:Wind:
Aussen-T/F 101 25-09-2020 08:20:00 9.4 C 8.32 g/m*3 9.4 C 0 km/h
102 25-09-2020 08:25:00 9.4 C 8.32 g/m*3 9.4 C 1.6 km/h
103 25-09-2020 08:30:00 9.4 C 8.23 g/m*3 9.4 C 4.8 km/h
104 25-09-2020 08:35:00 9.4 C 8.23 g/m*3 9.4 C 3.2 km/h
105 25-09-2020 08:40:00 9.5 C 8.28 g/m*3 9.5 C 3.2 km/h
106 25-09-2020 08:45:00 9.6 C 8.34 g/m*3 9.6 C 3.2 km/h
107 25-09-2020 08:50:00 9.6 C 8.24 g/m*3 8.52 C 8.1 km/h
108 25-09-2020 08:55:00 9.7 C 8.3 g/m*3 9.7 C 0 km/h
109 25-09-2020 09:00:00 9.7 C 8.3 g/m*3 9.7 C 1.6 km/h
110 25-09-2020 09:05:00 9.8 C 8.07 g/m*3 9.8 C 4.8 km/h
111 25-09-2020 09:10:00 9.9 C 8.22 g/m*3 9.9 C 1.6 km/h
112 25-09-2020 09:15:00 10.1 C 8.32 g/m*3 10.1 C 1.6 km/h
113 25-09-2020 09:20:00 10.1 C 8.13 g/m*3 9.48 C 6.4 km/h
114 25-09-2020 09:25:00 10.2 C 8.09 g/m*3 10.2 C 3.2 km/h
115 25-09-2020 09:30:00 10.3 C 8.14 g/m*3 10.3 C 4.8 km/h
116 25-09-2020 09:35:00 10.4 C 8.19 g/m*3 10.4 C 1.6 km/h
117 25-09-2020 09:40:00 10.5 C 8.24 g/m*3 9.95 C 6.4 km/h
118 25-09-2020 09:45:00 10.6 C 8.3 g/m*3 10.6 C 0 km/h
119 25-09-2020 09:50:00 10.7 C 8.35 g/m*3 10.7 C 0 km/h
120 25-09-2020 09:55:00 10.8 C 8.3 g/m*3 10.8 C 1.6 km/h
121 25-09-2020 10:00:00 10.8 C 8.3 g/m*3 10.8 C 3.2 km/h
122 25-09-2020 10:05:00 10.9 C 8.36 g/m*3 10.9 C 4.8 km/h
123 25-09-2020 10:10:00 11.1 C 8.36 g/m*3 11.1 C 3.2 km/h
124 25-09-2020 10:15:00 11.1 C 8.26 g/m*3 11.1 C 1.6 km/h
125 25-09-2020 10:20:00 11.2 C 8.31 g/m*3 11.2 C 3.2 km/h
Sensor: Nr:Datum:Temp:Abs-Feuchte:Windchill:Wind:
Aussen-T/F 126 25-09-2020 10:25:00 11.3 C 8.36 g/m*3 11.3 C 1.6 km/h
127 25-09-2020 10:30:00 11.4 C 8.42 g/m*3 11.4 C 1.6 km/h
128 25-09-2020 10:35:00 11.4 C 8.42 g/m*3 11.4 C 6.4 km/h
129 25-09-2020 10:40:00 11.6 C 8.42 g/m*3 11.6 C 3.2 km/h
130 25-09-2020 10:45:00 11.7 C 8.47 g/m*3 11.7 C 9.7 km/h
131 25-09-2020 10:50:00 11.8 C 8.42 g/m*3 11.8 C 3.2 km/h
132 25-09-2020 10:55:00 11.9 C 8.58 g/m*3 11.9 C 4.8 km/h
133 25-09-2020 11:00:00 12.1 C 8.47 g/m*3 12.1 C 11.3 km/h
134 25-09-2020 11:05:00 12.2 C 8.63 g/m*3 12.2 C 6.4 km/h
135 25-09-2020 11:10:00 12.2 C 8.52 g/m*3 12.2 C 8.1 km/h
136 25-09-2020 11:15:00 12.3 C 8.47 g/m*3 12.3 C 8.1 km/h
137 25-09-2020 11:20:00 12.4 C 8.41 g/m*3 12.4 C 12.9 km/h
138 25-09-2020 11:25:00 12.4 C 8.41 g/m*3 12.4 C 9.7 km/h
139 25-09-2020 11:30:00 12.4 C 8.52 g/m*3 12.4 C 12.9 km/h
140 25-09-2020 11:35:00 12.4 C 8.41 g/m*3 12.4 C 6.4 km/h
141 25-09-2020 11:40:00 12.5 C 8.58 g/m*3 12.5 C 4.8 km/h
142 25-09-2020 11:45:00 12.6 C 8.52 g/m*3 12.6 C 6.4 km/h
143 25-09-2020 11:50:00 12.7 C 8.57 g/m*3 12.7 C 8.1 km/h
144 25-09-2020 11:55:00 12.7 C 8.35 g/m*3 12.7 C 8.1 km/h
145 25-09-2020 12:00:00 12.8 C 8.51 g/m*3 12.8 C 9.7 km/h
146 25-09-2020 12:05:00 12.9 C 8.45 g/m*3 12.9 C 9.7 km/h
147 25-09-2020 12:10:00 13 C 8.39 g/m*3 13 C 9.7 km/h
148 25-09-2020 12:15:00 13 C 8.39 g/m*3 13 C 11.3 km/h
149 25-09-2020 12:20:00 13 C 8.39 g/m*3 13 C 11.3 km/h
150 25-09-2020 12:25:00 13.1 C 8.44 g/m*3 13.1 C 11.3 km/h
Sensor: Nr:Datum:Temp:Abs-Feuchte:Windchill:Wind:
Aussen-T/F 151 25-09-2020 12:30:00 13.3 C 8.32 g/m*3 13.3 C 14.5 km/h
152 25-09-2020 12:35:00 13.3 C 8.32 g/m*3 13.3 C 12.9 km/h
153 25-09-2020 12:40:00 13.4 C 8.37 g/m*3 13.4 C 9.7 km/h
154 25-09-2020 12:45:00 13.6 C 8.24 g/m*3 13.6 C 19.3 km/h
155 25-09-2020 12:50:00 13.6 C 8.12 g/m*3 13.6 C 12.9 km/h
156 25-09-2020 12:55:00 13.6 C 8.24 g/m*3 13.6 C 11.3 km/h
157 25-09-2020 13:00:00 13.6 C 8.24 g/m*3 13.6 C 9.7 km/h
158 25-09-2020 13:05:00 13.6 C 8.12 g/m*3 13.6 C 16.1 km/h
159 25-09-2020 13:10:00 13.4 C 8.14 g/m*3 13.4 C 9.7 km/h
160 25-09-2020 13:15:00 13.4 C 8.14 g/m*3 13.4 C 6.4 km/h
161 25-09-2020 13:20:00 13.4 C 8.25 g/m*3 13.4 C 6.4 km/h
162 25-09-2020 13:25:00 13.5 C 8.19 g/m*3 13.5 C 12.9 km/h
163 25-09-2020 13:30:00 13.6 C 8.36 g/m*3 13.6 C 11.3 km/h
164 25-09-2020 13:35:00 13.6 C 8.24 g/m*3 13.6 C 8.1 km/h
165 25-09-2020 13:40:00 13.7 C 8.17 g/m*3 13.7 C 14.5 km/h
166 25-09-2020 13:45:00 13.7 C 8.17 g/m*3 13.7 C 9.7 km/h
167 25-09-2020 13:50:00 13.6 C 8.36 g/m*3 13.6 C 9.7 km/h
168 25-09-2020 13:55:00 13.4 C 8.6 g/m*3 13.4 C 16.1 km/h
169 25-09-2020 14:00:00 12.9 C 8.68 g/m*3 12.9 C 11.3 km/h
170 25-09-2020 14:05:00 12.8 C 9.07 g/m*3 12.8 C 0 km/h
171 25-09-2020 14:10:00 12.8 C 8.96 g/m*3 12.8 C 8.1 km/h
172 25-09-2020 14:15:00 12.8 C 9.07 g/m*3 12.8 C 4.8 km/h
173 25-09-2020 14:20:00 12.8 C 9.07 g/m*3 12.8 C 4.8 km/h
174 25-09-2020 14:25:00 12.9 C 9.24 g/m*3 12.9 C 3.2 km/h
175 25-09-2020 14:30:00 13.1 C 9.13 g/m*3 13.1 C 3.2 km/h
Sensor: Nr:Datum:Temp:Abs-Feuchte:Windchill:Wind:
Aussen-T/F 176 25-09-2020 14:35:00 13.1 C 9.13 g/m*3 13.1 C 0 km/h
177 25-09-2020 14:40:00 13.2 C 8.84 g/m*3 13.2 C 0 km/h
178 25-09-2020 14:45:00 13.3 C 8.9 g/m*3 13.3 C 0 km/h
179 25-09-2020 14:50:00 13.3 C 8.78 g/m*3 13.3 C 3.2 km/h
180 25-09-2020 14:55:00 13.4 C 8.72 g/m*3 13.4 C 4.8 km/h
181 25-09-2020 15:00:00 13.4 C 8.95 g/m*3 13.4 C 4.8 km/h
182 25-09-2020 15:05:00 13.5 C 9.01 g/m*3 13.5 C 3.2 km/h
183 25-09-2020 15:10:00 13.6 C 9.18 g/m*3 13.6 C 4.8 km/h
184 25-09-2020 15:15:00 13.6 C 9.06 g/m*3 13.6 C 4.8 km/h
185 25-09-2020 15:20:00 13.6 C 9.06 g/m*3 13.6 C 4.8 km/h
186 25-09-2020 15:25:00 13.6 C 9.3 g/m*3 13.6 C 4.8 km/h
187 25-09-2020 15:30:00 13.6 C 8.94 g/m*3 13.6 C 3.2 km/h
188 25-09-2020 15:35:00 13.8 C 9.53 g/m*3 13.8 C 0 km/h
189 25-09-2020 15:40:00 13.8 C 9.41 g/m*3 13.8 C 3.2 km/h
190 25-09-2020 15:45:00 13.8 C 9.53 g/m*3 13.8 C 3.2 km/h
191 25-09-2020 15:50:00 13.7 C 9.47 g/m*3 13.7 C 1.6 km/h
192 25-09-2020 15:55:00 13.8 C 9.65 g/m*3 13.8 C 4.8 km/h
193 25-09-2020 16:00:00 13.8 C 9.29 g/m*3 13.8 C 6.4 km/h
194 25-09-2020 16:05:00 13.8 C 9.29 g/m*3 13.8 C 1.6 km/h
195 25-09-2020 16:10:00 13.9 C 9.23 g/m*3 13.9 C 1.6 km/h
196 25-09-2020 16:15:00 14.1 C 9.22 g/m*3 14.1 C 3.2 km/h
197 25-09-2020 16:20:00 14.1 C 9.1 g/m*3 14.1 C 9.7 km/h
198 25-09-2020 16:25:00 14.2 C 9.04 g/m*3 14.2 C 4.8 km/h
199 25-09-2020 16:30:00 14.2 C 8.91 g/m*3 14.2 C 9.7 km/h
200 25-09-2020 16:35:00 14.3 C 9.09 g/m*3 14.3 C 8.1 km/h
Sensor: Nr:Datum:Temp:Abs-Feuchte:Windchill:Wind:
Aussen-T/F 201 25-09-2020 16:40:00 14.6 C 9.26 g/m*3 14.6 C 11.3 km/h
202 25-09-2020 16:45:00 14.6 C 8.88 g/m*3 14.6 C 9.7 km/h
203 25-09-2020 16:50:00 14.6 C 8.88 g/m*3 14.6 C 8.1 km/h
204 25-09-2020 16:55:00 14.6 C 8.88 g/m*3 14.6 C 11.3 km/h
205 25-09-2020 17:00:00 14.4 C 8.78 g/m*3 14.4 C 8.1 km/h
206 25-09-2020 17:05:00 14.4 C 8.9 g/m*3 14.4 C 6.4 km/h
207 25-09-2020 17:10:00 14.4 C 8.9 g/m*3 14.4 C 8.1 km/h
208 25-09-2020 17:15:00 14.4 C 8.78 g/m*3 14.4 C 6.4 km/h
209 25-09-2020 17:20:00 14.4 C 8.78 g/m*3 14.4 C 8.1 km/h
210 25-09-2020 17:25:00 14.4 C 8.65 g/m*3 14.4 C 12.9 km/h
211 25-09-2020 17:30:00 14.3 C 8.72 g/m*3 14.3 C 8.1 km/h
212 25-09-2020 17:35:00 14.2 C 8.67 g/m*3 14.2 C 8.1 km/h
213 25-09-2020 17:40:00 14.1 C 8.74 g/m*3 14.1 C 6.4 km/h
214 25-09-2020 17:45:00 14.1 C 8.98 g/m*3 14.1 C 6.4 km/h
215 25-09-2020 17:50:00 14 C 8.81 g/m*3 14 C 3.2 km/h
216 25-09-2020 17:55:00 13.9 C 8.75 g/m*3 13.9 C 8.1 km/h
217 25-09-2020 18:00:00 13.9 C 8.75 g/m*3 13.9 C 4.8 km/h
218 25-09-2020 18:05:00 13.8 C 8.7 g/m*3 13.8 C 6.4 km/h
219 25-09-2020 18:10:00 13.6 C 8.59 g/m*3 13.6 C 16.1 km/h
220 25-09-2020 18:15:00 13.2 C 8.5 g/m*3 13.2 C 19.3 km/h
221 25-09-2020 18:20:00 13 C 8.62 g/m*3 13 C 12.9 km/h
222 25-09-2020 18:25:00 12.8 C 8.62 g/m*3 12.8 C 8.1 km/h
223 25-09-2020 18:30:00 12.7 C 8.68 g/m*3 12.7 C 12.9 km/h
224 25-09-2020 18:35:00 12.6 C 8.74 g/m*3 12.6 C 9.7 km/h
225 25-09-2020 18:40:00 12.4 C 8.85 g/m*3 12.4 C 8.1 km/h
Sensor: Nr:Datum:Temp:Abs-Feuchte:Windchill:Wind:
Aussen-T/F 226 25-09-2020 18:45:00 12.3 C 8.8 g/m*3 12.3 C 9.7 km/h
227 25-09-2020 18:50:00 12.2 C 8.74 g/m*3 12.2 C 4.8 km/h
228 25-09-2020 18:55:00 12.2 C 8.74 g/m*3 12.2 C 6.4 km/h
229 25-09-2020 19:00:00 12.1 C 8.69 g/m*3 12.1 C 6.4 km/h
230 25-09-2020 19:05:00 12 C 8.63 g/m*3 12 C 6.4 km/h
231 25-09-2020 19:10:00 11.9 C 8.58 g/m*3 11.9 C 1.6 km/h
232 25-09-2020 19:15:00 11.9 C 8.58 g/m*3 11.9 C 3.2 km/h
233 25-09-2020 19:20:00 11.9 C 8.58 g/m*3 11.9 C 3.2 km/h
234 25-09-2020 19:25:00 11.8 C 8.53 g/m*3 11.8 C 8.1 km/h
235 25-09-2020 19:30:00 11.8 C 8.53 g/m*3 11.8 C 6.4 km/h
236 25-09-2020 19:35:00 11.8 C 8.53 g/m*3 11.8 C 3.2 km/h
237 25-09-2020 19:40:00 11.8 C 8.53 g/m*3 11.8 C 9.7 km/h
238 25-09-2020 19:45:00 11.8 C 8.42 g/m*3 11.8 C 12.9 km/h
239 25-09-2020 19:50:00 11.9 C 8.47 g/m*3 11.9 C 6.4 km/h
240 25-09-2020 19:55:00 11.9 C 8.47 g/m*3 11.9 C 8.1 km/h
241 25-09-2020 20:00:00 11.9 C 8.47 g/m*3 11.9 C 8.1 km/h
242 25-09-2020 20:05:00 11.9 C 8.47 g/m*3 11.9 C 4.8 km/h
243 25-09-2020 20:10:00 11.8 C 8.53 g/m*3 11.8 C 6.4 km/h
244 25-09-2020 20:15:00 11.8 C 8.53 g/m*3 11.8 C 8.1 km/h
245 25-09-2020 20:20:00 11.8 C 8.53 g/m*3 11.8 C 4.8 km/h
246 25-09-2020 20:25:00 11.7 C 8.47 g/m*3 11.7 C 8.1 km/h
247 25-09-2020 20:30:00 11.7 C 8.58 g/m*3 11.7 C 3.2 km/h
248 25-09-2020 20:35:00 11.7 C 8.58 g/m*3 11.7 C 6.4 km/h
249 25-09-2020 20:40:00 11.7 C 8.58 g/m*3 11.7 C 6.4 km/h
250 25-09-2020 20:45:00 11.7 C 8.47 g/m*3 11.7 C 6.4 km/h
Sensor: Nr:Datum:Temp:Abs-Feuchte:Windchill:Wind:
Aussen-T/F 251 25-09-2020 20:50:00 11.7 C 8.37 g/m*3 11.7 C 11.3 km/h
252 25-09-2020 20:55:00 11.7 C 8.37 g/m*3 11.7 C 6.4 km/h
253 25-09-2020 21:00:00 11.7 C 8.26 g/m*3 11.7 C 6.4 km/h
254 25-09-2020 21:05:00 11.6 C 8.21 g/m*3 11.6 C 6.4 km/h
255 25-09-2020 21:10:00 11.6 C 8.11 g/m*3 11.6 C 9.7 km/h
256 25-09-2020 21:15:00 11.6 C 8.11 g/m*3 11.6 C 11.3 km/h
257 25-09-2020 21:20:00 11.5 C 8.06 g/m*3 11.5 C 9.7 km/h
258 25-09-2020 21:25:00 11.5 C 7.95 g/m*3 11.5 C 11.3 km/h
259 25-09-2020 21:30:00 11.5 C 8.06 g/m*3 11.5 C 6.4 km/h
260 25-09-2020 21:35:00 11.5 C 7.95 g/m*3 11.5 C 4.8 km/h
261 25-09-2020 21:40:00 11.5 C 8.06 g/m*3 11.5 C 4.8 km/h
262 25-09-2020 21:45:00 11.5 C 7.95 g/m*3 11.5 C 6.4 km/h
263 25-09-2020 21:50:00 11.5 C 8.06 g/m*3 11.5 C 3.2 km/h
264 25-09-2020 21:55:00 11.4 C 8.01 g/m*3 11.4 C 9.7 km/h
265 25-09-2020 22:00:00 11.4 C 8.01 g/m*3 11.4 C 8.1 km/h
266 25-09-2020 22:05:00 11.4 C 8.01 g/m*3 11.4 C 11.3 km/h
267 25-09-2020 22:10:00 11.5 C 8.06 g/m*3 11.5 C 9.7 km/h
268 25-09-2020 22:15:00 11.5 C 8.16 g/m*3 11.5 C 8.1 km/h
269 25-09-2020 22:20:00 11.5 C 8.06 g/m*3 11.5 C 12.9 km/h
270 25-09-2020 22:25:00 11.5 C 8.06 g/m*3 11.5 C 8.1 km/h
271 25-09-2020 22:30:00 11.4 C 8.01 g/m*3 11.4 C 11.3 km/h
272 25-09-2020 22:35:00 11.4 C 8.01 g/m*3 11.4 C 11.3 km/h
273 25-09-2020 22:40:00 11.4 C 8.11 g/m*3 11.4 C 11.3 km/h
274 25-09-2020 22:45:00 11.4 C 8.11 g/m*3 11.4 C 6.4 km/h
275 25-09-2020 22:50:00 11.4 C 8.11 g/m*3 11.4 C 4.8 km/h
Sensor: Nr:Datum:Temp:Abs-Feuchte:Windchill:Wind:
Aussen-T/F 276 25-09-2020 22:55:00 11.3 C 8.16 g/m*3 11.3 C 1.6 km/h
277 25-09-2020 23:00:00 11.3 C 8.16 g/m*3 11.3 C 4.8 km/h
278 25-09-2020 23:05:00 11.3 C 8.26 g/m*3 11.3 C 8.1 km/h
279 25-09-2020 23:10:00 11.2 C 8.11 g/m*3 11.2 C 12.9 km/h
280 25-09-2020 23:15:00 11.2 C 8.21 g/m*3 11.2 C 8.1 km/h
281 25-09-2020 23:20:00 11.2 C 8.21 g/m*3 11.2 C 11.3 km/h
282 25-09-2020 23:25:00 11.2 C 8.11 g/m*3 11.2 C 9.7 km/h
283 25-09-2020 23:30:00 11.1 C 8.06 g/m*3 11.1 C 11.3 km/h
284 25-09-2020 23:35:00 11.2 C 8.11 g/m*3 11.2 C 9.7 km/h
285 25-09-2020 23:40:00 11.2 C 8.11 g/m*3 11.2 C 12.9 km/h
286 25-09-2020 23:45:00 11.2 C 8.11 g/m*3 11.2 C 9.7 km/h
287 25-09-2020 23:50:00 11.2 C 8.11 g/m*3 11.2 C 16.1 km/h
288 25-09-2020 23:55:00 11.2 C 8.11 g/m*3 11.2 C 9.7 km/h
289 26-09-2020 00:00:00 11.1 C 8.26 g/m*3 11.1 C 17.7 km/h
290 26-09-2020 00:05:00 10.9 C 8.16 g/m*3 9.76 C 9.7 km/h
291 26-09-2020 00:10:00 10.8 C 8.11 g/m*3 8.96 C 14.5 km/h
292 26-09-2020 00:15:00 10.7 C 8.15 g/m*3 9.04 C 12.9 km/h
293 26-09-2020 00:20:00 10.7 C 8.05 g/m*3 8.65 C 16.1 km/h
294 26-09-2020 00:25:00 10.6 C 8.1 g/m*3 8.92 C 12.9 km/h
295 26-09-2020 00:30:00 10.6 C 8.1 g/m*3 9.4 C 9.7 km/h
296 26-09-2020 00:35:00 10.6 C 8 g/m*3 8.71 C 14.5 km/h
297 26-09-2020 00:40:00 10.6 C 8 g/m*3 9.14 C 11.3 km/h
298 26-09-2020 00:45:00 10.6 C 8 g/m*3 8.53 C 16.1 km/h
299 26-09-2020 00:50:00 10.6 C 7.91 g/m*3 8.71 C 14.5 km/h
300 26-09-2020 00:55:00 10.6 C 7.91 g/m*3 8.71 C 14.5 km/h
Sensor: Nr:Datum:Temp:Abs-Feuchte:Windchill:Wind:
Aussen-T/F 301 26-09-2020 01:00:00 10.6 C 7.91 g/m*3 8.92 C 12.9 km/h
302 26-09-2020 01:05:00 10.7 C 7.96 g/m*3 9.04 C 12.9 km/h
303 26-09-2020 01:10:00 10.7 C 7.96 g/m*3 9.26 C 11.3 km/h
304 26-09-2020 01:15:00 10.6 C 7.91 g/m*3 9.14 C 11.3 km/h
305 26-09-2020 01:20:00 10.6 C 7.91 g/m*3 9.69 C 8.1 km/h
306 26-09-2020 01:25:00 10.6 C 7.91 g/m*3 8.71 C 14.5 km/h
307 26-09-2020 01:30:00 10.6 C 8 g/m*3 8.92 C 12.9 km/h
308 26-09-2020 01:35:00 10.6 C 7.91 g/m*3 8.92 C 12.9 km/h
309 26-09-2020 01:40:00 10.6 C 7.91 g/m*3 8.71 C 14.5 km/h
310 26-09-2020 01:45:00 10.6 C 8 g/m*3 8.92 C 12.9 km/h
311 26-09-2020 01:50:00 10.6 C 7.91 g/m*3 9.4 C 9.7 km/h
312 26-09-2020 01:55:00 10.6 C 7.91 g/m*3 9.14 C 11.3 km/h
313 26-09-2020 02:00:00 10.6 C 7.91 g/m*3 8.92 C 12.9 km/h
314 26-09-2020 02:05:00 10.6 C 7.91 g/m*3 8.53 C 16.1 km/h
315 26-09-2020 02:10:00 10.6 C 7.91 g/m*3 8.92 C 12.9 km/h
316 26-09-2020 02:15:00 10.6 C 7.91 g/m*3 9.4 C 9.7 km/h
317 26-09-2020 02:20:00 10.6 C 7.91 g/m*3 9.14 C 11.3 km/h
318 26-09-2020 02:25:00 10.5 C 7.86 g/m*3 9.57 C 8.1 km/h
319 26-09-2020 02:30:00 10.5 C 7.95 g/m*3 9.57 C 8.1 km/h
320 26-09-2020 02:35:00 10.4 C 7.9 g/m*3 8.47 C 14.5 km/h
321 26-09-2020 02:40:00 10.4 C 7.9 g/m*3 8.9 C 11.3 km/h
322 26-09-2020 02:45:00 10.5 C 7.95 g/m*3 9.28 C 9.7 km/h
323 26-09-2020 02:50:00 10.4 C 7.9 g/m*3 10.4 C 3.2 km/h
324 26-09-2020 02:55:00 10.3 C 7.85 g/m*3 8.16 C 16.1 km/h
325 26-09-2020 03:00:00 10.2 C 7.9 g/m*3 8.03 C 16.1 km/h
Sensor: Nr:Datum:Temp:Abs-Feuchte:Windchill:Wind:
Aussen-T/F 326 26-09-2020 03:05:00 10.2 C 7.9 g/m*3 8.66 C 11.3 km/h
327 26-09-2020 03:10:00 10.1 C 7.85 g/m*3 8.54 C 11.3 km/h
328 26-09-2020 03:15:00 10.1 C 7.85 g/m*3 8.8 C 9.7 km/h
329 26-09-2020 03:20:00 10.1 C 7.85 g/m*3 8.31 C 12.9 km/h
330 26-09-2020 03:25:00 10.1 C 7.85 g/m*3 7.73 C 17.7 km/h
331 26-09-2020 03:30:00 10.1 C 7.85 g/m*3 7.42 C 20.9 km/h
332 26-09-2020 03:35:00 10.1 C 7.85 g/m*3 8.31 C 12.9 km/h
333 26-09-2020 03:40:00 10 C 7.8 g/m*3 7.15 C 22.5 km/h
334 26-09-2020 03:45:00 9.9 C 7.75 g/m*3 7.16 C 20.9 km/h
335 26-09-2020 03:50:00 9.9 C 7.75 g/m*3 7.16 C 20.9 km/h
336 26-09-2020 03:55:00 9.8 C 7.7 g/m*3 7.04 C 20.9 km/h
337 26-09-2020 04:00:00 9.8 C 7.7 g/m*3 6.76 C 24.1 km/h
338 26-09-2020 04:05:00 9.8 C 7.7 g/m*3 7.36 C 17.7 km/h
339 26-09-2020 04:10:00 9.8 C 7.61 g/m*3 7.94 C 12.9 km/h
340 26-09-2020 04:15:00 9.8 C 7.61 g/m*3 6.76 C 24.1 km/h
341 26-09-2020 04:20:00 9.8 C 7.61 g/m*3 7.73 C 14.5 km/h
342 26-09-2020 04:25:00 9.8 C 7.61 g/m*3 7.36 C 17.7 km/h
343 26-09-2020 04:30:00 9.8 C 7.61 g/m*3 7.19 C 19.3 km/h
344 26-09-2020 04:35:00 9.9 C 7.56 g/m*3 7.16 C 20.9 km/h
345 26-09-2020 04:40:00 9.9 C 7.56 g/m*3 7.32 C 19.3 km/h
346 26-09-2020 04:45:00 9.8 C 7.52 g/m*3 7.94 C 12.9 km/h
347 26-09-2020 04:50:00 9.8 C 7.52 g/m*3 7.19 C 19.3 km/h
348 26-09-2020 04:55:00 9.8 C 7.52 g/m*3 7.04 C 20.9 km/h
349 26-09-2020 05:00:00 9.8 C 7.42 g/m*3 7.36 C 17.7 km/h
350 26-09-2020 05:05:00 9.8 C 7.42 g/m*3 7.19 C 19.3 km/h
Sensor: Nr:Datum:Temp:Abs-Feuchte:Windchill:Wind:
Aussen-T/F 351 26-09-2020 05:10:00 9.8 C 7.42 g/m*3 7.36 C 17.7 km/h
352 26-09-2020 05:15:00 9.8 C 7.42 g/m*3 7.04 C 20.9 km/h
353 26-09-2020 05:20:00 9.7 C 7.38 g/m*3 7.07 C 19.3 km/h
354 26-09-2020 05:25:00 9.7 C 7.38 g/m*3 6.91 C 20.9 km/h
355 26-09-2020 05:30:00 9.7 C 7.38 g/m*3 7.41 C 16.1 km/h
356 26-09-2020 05:35:00 9.7 C 7.38 g/m*3 7.41 C 16.1 km/h
357 26-09-2020 05:40:00 9.7 C 7.38 g/m*3 6.91 C 20.9 km/h
358 26-09-2020 05:45:00 9.7 C 7.38 g/m*3 6.91 C 20.9 km/h
359 26-09-2020 05:50:00 9.7 C 7.38 g/m*3 6.5 C 25.7 km/h
360 26-09-2020 05:55:00 9.7 C 7.38 g/m*3 6.91 C 20.9 km/h
361 26-09-2020 06:00:00 9.7 C 7.38 g/m*3 6.91 C 20.9 km/h
362 26-09-2020 06:05:00 9.7 C 7.38 g/m*3 6.63 C 24.1 km/h
363 26-09-2020 06:10:00 9.7 C 7.47 g/m*3 6.91 C 20.9 km/h
364 26-09-2020 06:15:00 9.7 C 7.47 g/m*3 7.07 C 19.3 km/h
365 26-09-2020 06:20:00 9.7 C 7.47 g/m*3 7.41 C 16.1 km/h
366 26-09-2020 06:25:00 9.7 C 7.56 g/m*3 6.91 C 20.9 km/h
367 26-09-2020 06:30:00 9.7 C 7.56 g/m*3 7.82 C 12.9 km/h
368 26-09-2020 06:35:00 9.6 C 7.51 g/m*3 6.64 C 22.5 km/h
369 26-09-2020 06:40:00 9.6 C 7.6 g/m*3 6.64 C 22.5 km/h
370 26-09-2020 06:45:00 9.6 C 7.6 g/m*3 7.94 C 11.3 km/h
371 26-09-2020 06:50:00 9.6 C 7.69 g/m*3 6.37 C 25.7 km/h
372 26-09-2020 06:55:00 9.6 C 7.69 g/m*3 6.37 C 25.7 km/h
373 26-09-2020 07:00:00 9.5 C 7.65 g/m*3 7.58 C 12.9 km/h
374 26-09-2020 07:05:00 9.5 C 7.65 g/m*3 6.98 C 17.7 km/h
375 26-09-2020 07:10:00 9.5 C 7.74 g/m*3 7.58 C 12.9 km/h
Sensor: Nr:Datum:Temp:Abs-Feuchte:Windchill:Wind:
Aussen-T/F 376 26-09-2020 07:15:00 9.4 C 7.69 g/m*3 7.24 C 14.5 km/h
377 26-09-2020 07:20:00 9.4 C 7.69 g/m*3 6.86 C 17.7 km/h
378 26-09-2020 07:25:00 9.4 C 7.69 g/m*3 7.24 C 14.5 km/h
379 26-09-2020 07:30:00 9.4 C 7.78 g/m*3 7.46 C 12.9 km/h
380 26-09-2020 07:35:00 9.4 C 7.87 g/m*3 7.46 C 12.9 km/h
381 26-09-2020 07:40:00 9.4 C 7.87 g/m*3 7.7 C 11.3 km/h
382 26-09-2020 07:45:00 9.4 C 7.96 g/m*3 8.28 C 8.1 km/h
383 26-09-2020 07:50:00 9.4 C 7.96 g/m*3 7.46 C 12.9 km/h
384 26-09-2020 07:55:00 9.4 C 7.96 g/m*3 7.04 C 16.1 km/h
385 26-09-2020 08:00:00 9.3 C 7.91 g/m*3 7.33 C 12.9 km/h
386 26-09-2020 08:05:00 9.3 C 7.91 g/m*3 7.33 C 12.9 km/h
387 26-09-2020 08:10:00 9.3 C 8 g/m*3 7.12 C 14.5 km/h
388 26-09-2020 08:15:00 9.3 C 8.09 g/m*3 7.58 C 11.3 km/h
389 26-09-2020 08:20:00 9.3 C 8.09 g/m*3 9.3 C 4.8 km/h
390 26-09-2020 08:25:00 9.3 C 8.18 g/m*3 8.16 C 8.1 km/h
391 26-09-2020 08:30:00 9.3 C 8.18 g/m*3 7.33 C 12.9 km/h
392 26-09-2020 08:35:00 9.3 C 8.18 g/m*3 7.85 C 9.7 km/h
393 26-09-2020 08:40:00 9.3 C 8.27 g/m*3 8.56 C 6.4 km/h
394 26-09-2020 08:45:00 9.3 C 8.27 g/m*3 8.56 C 6.4 km/h
395 26-09-2020 08:50:00 9.4 C 8.32 g/m*3 8.28 C 8.1 km/h
396 26-09-2020 08:55:00 9.4 C 8.32 g/m*3 7.24 C 14.5 km/h
397 26-09-2020 09:00:00 9.4 C 8.32 g/m*3 8.28 C 8.1 km/h
398 26-09-2020 09:05:00 9.4 C 8.32 g/m*3 7.97 C 9.7 km/h
399 26-09-2020 09:10:00 9.5 C 8.37 g/m*3 9.5 C 4.8 km/h
400 26-09-2020 09:15:00 9.7 C 8.48 g/m*3 9.7 C 3.2 km/h
Sensor: Nr:Datum:Temp:Abs-Feuchte:Windchill:Wind:
Aussen-T/F 401 26-09-2020 09:20:00 9.8 C 8.54 g/m*3 9.8 C 4.8 km/h
402 26-09-2020 09:25:00 9.9 C 8.59 g/m*3 9.25 C 6.4 km/h
403 26-09-2020 09:30:00 9.9 C 8.59 g/m*3 7.85 C 14.5 km/h
404 26-09-2020 09:35:00 10.1 C 8.7 g/m*3 8.54 C 11.3 km/h
405 26-09-2020 09:40:00 10.2 C 8.66 g/m*3 8.92 C 9.7 km/h
406 26-09-2020 09:45:00 10.2 C 8.66 g/m*3 8.66 C 11.3 km/h
407 26-09-2020 09:50:00 10.3 C 8.71 g/m*3 9.04 C 9.7 km/h
408 26-09-2020 09:55:00 10.4 C 8.77 g/m*3 9.46 C 8.1 km/h
409 26-09-2020 10:00:00 10.6 C 8.78 g/m*3 10.06 C 6.4 km/h
410 26-09-2020 10:05:00 10.7 C 8.84 g/m*3 9.04 C 12.9 km/h
411 26-09-2020 10:10:00 10.7 C 8.74 g/m*3 8.84 C 14.5 km/h
412 26-09-2020 10:15:00 10.8 C 8.9 g/m*3 9.64 C 9.7 km/h
413 26-09-2020 10:20:00 10.8 C 8.9 g/m*3 10.8 C 1.6 km/h
414 26-09-2020 10:25:00 10.9 C 8.95 g/m*3 9.08 C 14.5 km/h
415 26-09-2020 10:30:00 10.9 C 8.95 g/m*3 10.9 C 4.8 km/h
416 26-09-2020 10:35:00 11 C 9.01 g/m*3 9.88 C 9.7 km/h
417 26-09-2020 10:40:00 11.1 C 8.96 g/m*3 11.1 C 9.7 km/h
418 26-09-2020 10:45:00 11.1 C 8.96 g/m*3 11.1 C 11.3 km/h
419 26-09-2020 10:50:00 11.2 C 8.92 g/m*3 11.2 C 8.1 km/h
420 26-09-2020 10:55:00 11.2 C 8.92 g/m*3 11.2 C 8.1 km/h
421 26-09-2020 11:00:00 11.3 C 8.98 g/m*3 11.3 C 8.1 km/h
422 26-09-2020 11:05:00 11.3 C 9.08 g/m*3 11.3 C 4.8 km/h
423 26-09-2020 11:10:00 11.4 C 9.24 g/m*3 11.4 C 3.2 km/h
424 26-09-2020 11:15:00 11.4 C 9.24 g/m*3 11.4 C 4.8 km/h
425 26-09-2020 11:20:00 11.4 C 9.24 g/m*3 11.4 C 6.4 km/h
Sensor: Nr:Datum:Temp:Abs-Feuchte:Windchill:Wind:
Aussen-T/F 426 26-09-2020 11:25:00 11.4 C 9.24 g/m*3 11.4 C 11.3 km/h
427 26-09-2020 11:30:00 11.6 C 9.25 g/m*3 11.6 C 6.4 km/h
428 26-09-2020 11:35:00 11.7 C 9.2 g/m*3 11.7 C 6.4 km/h
429 26-09-2020 11:40:00 11.8 C 9.16 g/m*3 11.8 C 9.7 km/h
430 26-09-2020 11:45:00 11.8 C 8.95 g/m*3 11.8 C 8.1 km/h
431 26-09-2020 11:50:00 11.9 C 9 g/m*3 11.9 C 9.7 km/h
432 26-09-2020 11:55:00 12 C 9.06 g/m*3 12 C 9.7 km/h
433 26-09-2020 12:00:00 12 C 8.95 g/m*3 12 C 9.7 km/h
434 26-09-2020 12:05:00 12 C 8.95 g/m*3 12 C 14.5 km/h
435 26-09-2020 12:10:00 12 C 9.06 g/m*3 12 C 8.1 km/h
436 26-09-2020 12:15:00 12.1 C 9.12 g/m*3 12.1 C 4.8 km/h
437 26-09-2020 12:20:00 12.2 C 9.06 g/m*3 12.2 C 11.3 km/h
438 26-09-2020 12:25:00 12.2 C 8.96 g/m*3 12.2 C 9.7 km/h
439 26-09-2020 12:30:00 12.3 C 9.12 g/m*3 12.3 C 6.4 km/h
440 26-09-2020 12:35:00 12.2 C 8.96 g/m*3 12.2 C 19.3 km/h
441 26-09-2020 12:40:00 12.2 C 9.06 g/m*3 12.2 C 12.9 km/h
442 26-09-2020 12:45:00 12 C 9.17 g/m*3 12 C 16.1 km/h
443 26-09-2020 12:50:00 11.7 C 9.1 g/m*3 11.7 C 14.5 km/h
444 26-09-2020 12:55:00 11.6 C 9.25 g/m*3 11.6 C 11.3 km/h
445 26-09-2020 13:00:00 11.4 C 9.14 g/m*3 11.4 C 3.2 km/h
446 26-09-2020 13:05:00 11.4 C 9.24 g/m*3 11.4 C 3.2 km/h
447 26-09-2020 13:10:00 11.3 C 9.28 g/m*3 11.3 C 4.8 km/h
448 26-09-2020 13:15:00 11.3 C 9.28 g/m*3 11.3 C 1.6 km/h
449 26-09-2020 13:20:00 11.3 C 9.28 g/m*3 11.3 C 6.4 km/h
450 26-09-2020 13:25:00 11.3 C 9.38 g/m*3 11.3 C 3.2 km/h
Sensor: Nr:Datum:Temp:Abs-Feuchte:Windchill:Wind:
Aussen-T/F 451 26-09-2020 13:30:00 11.3 C 9.38 g/m*3 11.3 C 8.1 km/h
452 26-09-2020 13:35:00 11.5 C 9.61 g/m*3 11.5 C 4.8 km/h
453 26-09-2020 13:40:00 11.7 C 9.73 g/m*3 11.7 C 4.8 km/h
454 26-09-2020 13:45:00 11.8 C 9.79 g/m*3 11.8 C 3.2 km/h
455 26-09-2020 13:50:00 11.8 C 9.68 g/m*3 11.8 C 11.3 km/h
456 26-09-2020 13:55:00 11.7 C 9.62 g/m*3 11.7 C 9.7 km/h
457 26-09-2020 14:00:00 11.7 C 9.62 g/m*3 11.7 C 12.9 km/h
458 26-09-2020 14:05:00 11.7 C 9.62 g/m*3 11.7 C 3.2 km/h
459 26-09-2020 14:10:00 11.8 C 9.68 g/m*3 11.8 C 9.7 km/h
460 26-09-2020 14:15:00 11.8 C 9.58 g/m*3 11.8 C 6.4 km/h
461 26-09-2020 14:20:00 11.8 C 9.47 g/m*3 11.8 C 12.9 km/h
462 26-09-2020 14:25:00 11.7 C 9.31 g/m*3 11.7 C 17.7 km/h
463 26-09-2020 14:30:00 11.7 C 9.31 g/m*3 11.7 C 14.5 km/h
464 26-09-2020 14:35:00 11.7 C 9.41 g/m*3 11.7 C 12.9 km/h
465 26-09-2020 14:40:00 11.6 C 9.35 g/m*3 11.6 C 9.7 km/h
466 26-09-2020 14:45:00 11.6 C 9.35 g/m*3 11.6 C 11.3 km/h
467 26-09-2020 14:50:00 11.6 C 9.46 g/m*3 11.6 C 4.8 km/h
468 26-09-2020 14:55:00 11.6 C 9.46 g/m*3 11.6 C 12.9 km/h
469 26-09-2020 15:00:00 11.5 C 9.3 g/m*3 11.5 C 12.9 km/h
470 26-09-2020 15:05:00 11.6 C 9.46 g/m*3 11.6 C 11.3 km/h
471 26-09-2020 15:10:00 11.6 C 9.46 g/m*3 11.6 C 9.7 km/h
472 26-09-2020 15:15:00 11.6 C 9.46 g/m*3 11.6 C 6.4 km/h
473 26-09-2020 15:20:00 11.6 C 9.46 g/m*3 11.6 C 9.7 km/h
474 26-09-2020 15:25:00 11.4 C 9.34 g/m*3 11.4 C 12.9 km/h
475 26-09-2020 15:30:00 11.3 C 9.28 g/m*3 11.3 C 16.1 km/h
Sensor: Nr:Datum:Temp:Abs-Feuchte:Windchill:Wind:
Aussen-T/F 476 26-09-2020 15:35:00 11.3 C 9.28 g/m*3 11.3 C 14.5 km/h
477 26-09-2020 15:40:00 11.2 C 9.22 g/m*3 11.2 C 11.3 km/h
478 26-09-2020 15:45:00 11.2 C 9.22 g/m*3 11.2 C 12.9 km/h
479 26-09-2020 15:50:00 11.1 C 9.17 g/m*3 11.1 C 12.9 km/h
480 26-09-2020 15:55:00 11.1 C 9.17 g/m*3 11.1 C 9.7 km/h
481 26-09-2020 16:00:00 11.1 C 9.17 g/m*3 11.1 C 6.4 km/h
482 26-09-2020 16:05:00 11.1 C 9.17 g/m*3 11.1 C 14.5 km/h
483 26-09-2020 16:10:00 11 C 9.11 g/m*3 9.21 C 14.5 km/h
484 26-09-2020 16:15:00 10.9 C 9.05 g/m*3 9.51 C 11.3 km/h
485 26-09-2020 16:20:00 10.9 C 8.95 g/m*3 9.28 C 12.9 km/h
486 26-09-2020 16:25:00 10.9 C 8.95 g/m*3 9.51 C 11.3 km/h
487 26-09-2020 16:30:00 10.9 C 8.95 g/m*3 8.9 C 16.1 km/h
488 26-09-2020 16:35:00 10.9 C 8.95 g/m*3 9.76 C 9.7 km/h
489 26-09-2020 16:40:00 10.9 C 8.95 g/m*3 10.04 C 8.1 km/h
490 26-09-2020 16:45:00 10.9 C 8.95 g/m*3 10.9 C 4.8 km/h
491 26-09-2020 16:50:00 10.9 C 8.95 g/m*3 8.73 C 17.7 km/h
492 26-09-2020 16:55:00 10.9 C 8.95 g/m*3 9.28 C 12.9 km/h
493 26-09-2020 17:00:00 10.9 C 8.95 g/m*3 10.41 C 6.4 km/h
494 26-09-2020 17:05:00 10.9 C 8.95 g/m*3 10.04 C 8.1 km/h
495 26-09-2020 17:10:00 10.9 C 9.05 g/m*3 9.76 C 9.7 km/h
496 26-09-2020 17:15:00 10.9 C 8.95 g/m*3 10.04 C 8.1 km/h
497 26-09-2020 17:20:00 10.9 C 8.95 g/m*3 9.76 C 9.7 km/h
498 26-09-2020 17:25:00 10.9 C 8.95 g/m*3 9.51 C 11.3 km/h
499 26-09-2020 17:30:00 10.9 C 8.95 g/m*3 9.76 C 9.7 km/h
500 26-09-2020 17:35:00 10.9 C 8.95 g/m*3 9.76 C 9.7 km/h
Sensor: Nr:Datum:Temp:Abs-Feuchte:Windchill:Wind:
Aussen-T/F 501 26-09-2020 17:40:00 10.9 C 8.95 g/m*3 9.28 C 12.9 km/h
502 26-09-2020 17:45:00 10.9 C 8.95 g/m*3 10.04 C 8.1 km/h
503 26-09-2020 17:50:00 10.9 C 8.95 g/m*3 10.04 C 8.1 km/h
504 26-09-2020 17:55:00 10.9 C 9.05 g/m*3 10.04 C 8.1 km/h
505 26-09-2020 18:00:00 10.9 C 9.05 g/m*3 10.9 C 3.2 km/h
506 26-09-2020 18:05:00 10.9 C 9.05 g/m*3 10.9 C 3.2 km/h
507 26-09-2020 18:10:00 10.9 C 9.05 g/m*3 10.41 C 6.4 km/h
508 26-09-2020 18:15:00 10.9 C 9.15 g/m*3 10.41 C 6.4 km/h
509 26-09-2020 18:20:00 10.9 C 9.15 g/m*3 10.9 C 4.8 km/h
510 26-09-2020 18:25:00 10.8 C 9.09 g/m*3 10.8 C 3.2 km/h
511 26-09-2020 18:30:00 10.8 C 9.09 g/m*3 10.8 C 4.8 km/h
512 26-09-2020 18:35:00 10.8 C 9.09 g/m*3 10.8 C 4.8 km/h
513 26-09-2020 18:40:00 10.7 C 9.04 g/m*3 9.52 C 9.7 km/h
514 26-09-2020 18:45:00 10.7 C 9.04 g/m*3 10.7 C 3.2 km/h
515 26-09-2020 18:50:00 10.8 C 9.09 g/m*3 9.64 C 9.7 km/h
516 26-09-2020 18:55:00 10.7 C 9.04 g/m*3 10.18 C 6.4 km/h
517 26-09-2020 19:00:00 10.7 C 9.04 g/m*3 9.52 C 9.7 km/h
518 26-09-2020 19:05:00 10.7 C 9.04 g/m*3 10.18 C 6.4 km/h
519 26-09-2020 19:10:00 10.7 C 9.04 g/m*3 9.81 C 8.1 km/h
520 26-09-2020 19:15:00 10.7 C 9.04 g/m*3 10.7 C 1.6 km/h
521 26-09-2020 19:20:00 10.7 C 9.04 g/m*3 10.7 C 0 km/h
522 26-09-2020 19:25:00 10.7 C 9.04 g/m*3 10.18 C 6.4 km/h
523 26-09-2020 19:30:00 10.7 C 9.04 g/m*3 10.7 C 1.6 km/h
524 26-09-2020 19:35:00 10.7 C 9.04 g/m*3 10.7 C 3.2 km/h
525 26-09-2020 19:40:00 10.7 C 9.04 g/m*3 10.7 C 3.2 km/h
Sensor: Nr:Datum:Temp:Abs-Feuchte:Windchill:Wind:
Aussen-T/F 526 26-09-2020 19:45:00 10.7 C 9.04 g/m*3 9.81 C 8.1 km/h
527 26-09-2020 19:50:00 10.6 C 9.08 g/m*3 10.06 C 6.4 km/h
528 26-09-2020 19:55:00 10.6 C 9.08 g/m*3 10.6 C 4.8 km/h
529 26-09-2020 20:00:00 10.6 C 9.08 g/m*3 10.6 C 4.8 km/h
530 26-09-2020 20:05:00 10.5 C 9.02 g/m*3 9.95 C 6.4 km/h
531 26-09-2020 20:10:00 10.4 C 8.96 g/m*3 9.16 C 9.7 km/h
532 26-09-2020 20:15:00 10.4 C 8.96 g/m*3 10.4 C 1.6 km/h
533 26-09-2020 20:20:00 10.4 C 8.96 g/m*3 10.4 C 3.2 km/h
534 26-09-2020 20:25:00 10.4 C 8.96 g/m*3 10.4 C 4.8 km/h
535 26-09-2020 20:30:00 10.3 C 8.91 g/m*3 10.3 C 0 km/h
536 26-09-2020 20:35:00 10.3 C 9 g/m*3 9.72 C 6.4 km/h
537 26-09-2020 20:40:00 10.3 C 9 g/m*3 9.72 C 6.4 km/h
538 26-09-2020 20:45:00 10.3 C 9 g/m*3 10.3 C 3.2 km/h
539 26-09-2020 20:50:00 10.3 C 9 g/m*3 10.3 C 3.2 km/h
540 26-09-2020 20:55:00 10.2 C 8.95 g/m*3 10.2 C 4.8 km/h
541 26-09-2020 21:00:00 10.2 C 8.95 g/m*3 10.2 C 3.2 km/h
542 26-09-2020 21:05:00 10.2 C 8.95 g/m*3 10.2 C 3.2 km/h
543 26-09-2020 21:10:00 10.2 C 8.95 g/m*3 10.2 C 1.6 km/h
544 26-09-2020 21:15:00 10.2 C 8.95 g/m*3 10.2 C 4.8 km/h
545 26-09-2020 21:20:00 10.2 C 8.95 g/m*3 10.2 C 4.8 km/h
546 26-09-2020 21:25:00 10.2 C 8.95 g/m*3 10.2 C 0 km/h
547 26-09-2020 21:30:00 10.2 C 9.04 g/m*3 10.2 C 0 km/h
548 26-09-2020 21:35:00 10.2 C 9.04 g/m*3 10.2 C 1.6 km/h
549 26-09-2020 21:40:00 10.2 C 9.04 g/m*3 10.2 C 3.2 km/h
550 26-09-2020 21:45:00 10.2 C 9.04 g/m*3 10.2 C 0 km/h
Sensor: Nr:Datum:Temp:Abs-Feuchte:Windchill:Wind:
Aussen-T/F 551 26-09-2020 21:50:00 10.2 C 9.04 g/m*3 10.2 C 3.2 km/h
552 26-09-2020 21:55:00 10.2 C 9.04 g/m*3 10.2 C 1.6 km/h
553 26-09-2020 22:00:00 10.2 C 9.04 g/m*3 10.2 C 1.6 km/h
554 26-09-2020 22:05:00 10.2 C 9.04 g/m*3 10.2 C 0 km/h
555 26-09-2020 22:10:00 10.2 C 9.04 g/m*3 10.2 C 0 km/h
556 26-09-2020 22:15:00 10.2 C 9.04 g/m*3 10.2 C 1.6 km/h
557 26-09-2020 22:20:00 10.2 C 9.04 g/m*3 10.2 C 1.6 km/h
558 26-09-2020 22:25:00 10.1 C 8.98 g/m*3 10.1 C 3.2 km/h
559 26-09-2020 22:30:00 10.1 C 8.98 g/m*3 8.8 C 9.7 km/h
560 26-09-2020 22:35:00 10 C 8.93 g/m*3 10 C 1.6 km/h
561 26-09-2020 22:40:00 10 C 8.93 g/m*3 10 C 3.2 km/h
562 26-09-2020 22:45:00 9.9 C 8.87 g/m*3 9.9 C 3.2 km/h
563 26-09-2020 22:50:00 9.9 C 8.87 g/m*3 9.9 C 0 km/h
564 26-09-2020 22:55:00 9.9 C 8.87 g/m*3 9.9 C 1.6 km/h
565 26-09-2020 23:00:00 9.9 C 8.87 g/m*3 9.9 C 1.6 km/h
566 26-09-2020 23:05:00 9.9 C 8.87 g/m*3 9.9 C 3.2 km/h
567 26-09-2020 23:10:00 9.9 C 8.87 g/m*3 9.9 C 3.2 km/h
568 26-09-2020 23:15:00 9.9 C 8.87 g/m*3 9.9 C 3.2 km/h
569 26-09-2020 23:20:00 9.9 C 8.87 g/m*3 9.9 C 1.6 km/h
570 26-09-2020 23:25:00 9.9 C 8.87 g/m*3 9.25 C 6.4 km/h
571 26-09-2020 23:30:00 9.9 C 8.87 g/m*3 9.9 C 3.2 km/h
572 26-09-2020 23:35:00 9.9 C 8.87 g/m*3 9.9 C 3.2 km/h
573 26-09-2020 23:40:00 9.8 C 8.81 g/m*3 9.8 C 1.6 km/h
574 26-09-2020 23:45:00 9.8 C 8.81 g/m*3 9.8 C 3.2 km/h
575 26-09-2020 23:50:00 9.7 C 8.76 g/m*3 9.7 C 4.8 km/h
Sensor: Nr:Datum:Temp:Abs-Feuchte:Windchill:Wind:
Aussen-T/F 576 26-09-2020 23:55:00 9.7 C 8.76 g/m*3 9.7 C 3.2 km/h
577 27-09-2020 00:00:00 9.6 C 8.7 g/m*3 9.6 C 4.8 km/h
578 27-09-2020 00:05:00 9.6 C 8.7 g/m*3 9.6 C 4.8 km/h
579 27-09-2020 00:10:00 9.5 C 8.65 g/m*3 9.5 C 4.8 km/h
580 27-09-2020 00:15:00 9.4 C 8.59 g/m*3 9.4 C 4.8 km/h
581 27-09-2020 00:20:00 9.4 C 8.59 g/m*3 9.4 C 4.8 km/h
582 27-09-2020 00:25:00 9.4 C 8.59 g/m*3 9.4 C 1.6 km/h
583 27-09-2020 00:30:00 9.3 C 8.54 g/m*3 9.3 C 3.2 km/h
584 27-09-2020 00:35:00 9.3 C 8.54 g/m*3 8.56 C 6.4 km/h
585 27-09-2020 00:40:00 9.3 C 8.54 g/m*3 8.56 C 6.4 km/h
586 27-09-2020 00:45:00 9.3 C 8.54 g/m*3 9.3 C 3.2 km/h
587 27-09-2020 00:50:00 9.2 C 8.48 g/m*3 8.45 C 6.4 km/h
588 27-09-2020 00:55:00 9.2 C 8.48 g/m*3 9.2 C 4.8 km/h
589 27-09-2020 01:00:00 9.1 C 8.43 g/m*3 9.1 C 4.8 km/h
590 27-09-2020 01:05:00 9.1 C 8.43 g/m*3 9.1 C 4.8 km/h
591 27-09-2020 01:10:00 9 C 8.38 g/m*3 8.21 C 6.4 km/h
592 27-09-2020 01:15:00 8.9 C 8.32 g/m*3 7.37 C 9.7 km/h
593 27-09-2020 01:20:00 8.9 C 8.32 g/m*3 7.09 C 11.3 km/h
594 27-09-2020 01:25:00 8.8 C 8.27 g/m*3 6.97 C 11.3 km/h
595 27-09-2020 01:30:00 8.8 C 8.36 g/m*3 7.58 C 8.1 km/h
596 27-09-2020 01:35:00 8.8 C 8.36 g/m*3 7.58 C 8.1 km/h
597 27-09-2020 01:40:00 8.8 C 8.36 g/m*3 7.25 C 9.7 km/h
598 27-09-2020 01:45:00 8.8 C 8.27 g/m*3 7.98 C 6.4 km/h
599 27-09-2020 01:50:00 8.8 C 8.36 g/m*3 8.8 C 4.8 km/h
600 27-09-2020 01:55:00 8.8 C 8.36 g/m*3 7.98 C 6.4 km/h
Sensor: Nr:Datum:Temp:Abs-Feuchte:Windchill:Wind:
Aussen-T/F 601 27-09-2020 02:00:00 8.8 C 8.36 g/m*3 6.72 C 12.9 km/h
602 27-09-2020 02:05:00 8.8 C 8.36 g/m*3 7.58 C 8.1 km/h
603 27-09-2020 02:10:00 8.8 C 8.36 g/m*3 7.98 C 6.4 km/h
604 27-09-2020 02:15:00 8.8 C 8.36 g/m*3 7.25 C 9.7 km/h
605 27-09-2020 02:20:00 8.9 C 8.41 g/m*3 6.62 C 14.5 km/h
606 27-09-2020 02:25:00 8.9 C 8.41 g/m*3 6.62 C 14.5 km/h
607 27-09-2020 02:30:00 8.9 C 8.41 g/m*3 7.09 C 11.3 km/h
608 27-09-2020 02:35:00 8.9 C 8.41 g/m*3 8.9 C 4.8 km/h
609 27-09-2020 02:40:00 9 C 8.46 g/m*3 7.81 C 8.1 km/h
610 27-09-2020 02:45:00 9 C 8.46 g/m*3 9 C 3.2 km/h
611 27-09-2020 02:50:00 9.1 C 8.52 g/m*3 8.33 C 6.4 km/h
612 27-09-2020 02:55:00 9.1 C 8.52 g/m*3 8.33 C 6.4 km/h
613 27-09-2020 03:00:00 9.2 C 8.57 g/m*3 9.2 C 3.2 km/h
614 27-09-2020 03:05:00 9.2 C 8.57 g/m*3 8.05 C 8.1 km/h
615 27-09-2020 03:10:00 9.2 C 8.57 g/m*3 7.73 C 9.7 km/h
616 27-09-2020 03:15:00 9.3 C 8.63 g/m*3 9.3 C 3.2 km/h
617 27-09-2020 03:20:00 9.3 C 8.63 g/m*3 9.3 C 4.8 km/h
618 27-09-2020 03:25:00 9.3 C 8.63 g/m*3 9.3 C 3.2 km/h
619 27-09-2020 03:30:00 9.3 C 8.63 g/m*3 9.3 C 3.2 km/h
620 27-09-2020 03:35:00 9.4 C 8.68 g/m*3 9.4 C 3.2 km/h
621 27-09-2020 03:40:00 9.4 C 8.68 g/m*3 8.68 C 6.4 km/h
622 27-09-2020 03:45:00 9.4 C 8.68 g/m*3 9.4 C 3.2 km/h
623 27-09-2020 03:50:00 9.4 C 8.68 g/m*3 8.28 C 8.1 km/h
624 27-09-2020 03:55:00 9.5 C 8.74 g/m*3 8.79 C 6.4 km/h
625 27-09-2020 04:00:00 9.5 C 8.74 g/m*3 9.5 C 3.2 km/h
Sensor: Nr:Datum:Temp:Abs-Feuchte:Windchill:Wind:
Aussen-T/F 626 27-09-2020 04:05:00 9.5 C 8.74 g/m*3 8.09 C 9.7 km/h
627 27-09-2020 04:10:00 9.5 C 8.74 g/m*3 9.5 C 1.6 km/h
628 27-09-2020 04:15:00 9.5 C 8.74 g/m*3 9.5 C 3.2 km/h
629 27-09-2020 04:20:00 9.5 C 8.74 g/m*3 9.5 C 0 km/h
630 27-09-2020 04:25:00 9.5 C 8.74 g/m*3 9.5 C 0 km/h
631 27-09-2020 04:30:00 9.5 C 8.74 g/m*3 9.5 C 0 km/h
632 27-09-2020 04:35:00 9.5 C 8.74 g/m*3 9.5 C 0 km/h
633 27-09-2020 04:40:00 9.5 C 8.74 g/m*3 9.5 C 0 km/h
634 27-09-2020 04:45:00 9.5 C 8.74 g/m*3 9.5 C 0 km/h
635 27-09-2020 04:50:00 9.5 C 8.74 g/m*3 9.5 C 1.6 km/h
636 27-09-2020 04:55:00 9.6 C 8.79 g/m*3 9.6 C 1.6 km/h
637 27-09-2020 05:00:00 9.6 C 8.79 g/m*3 9.6 C 3.2 km/h
638 27-09-2020 05:05:00 9.6 C 8.79 g/m*3 9.6 C 0 km/h
639 27-09-2020 05:10:00 9.6 C 8.79 g/m*3 9.6 C 1.6 km/h
640 27-09-2020 05:15:00 9.6 C 8.79 g/m*3 9.6 C 1.6 km/h
641 27-09-2020 05:20:00 9.6 C 8.79 g/m*3 9.6 C 0 km/h
642 27-09-2020 05:25:00 9.6 C 8.79 g/m*3 9.6 C 1.6 km/h
643 27-09-2020 05:30:00 9.6 C 8.79 g/m*3 9.6 C 0 km/h
644 27-09-2020 05:35:00 9.6 C 8.79 g/m*3 9.6 C 1.6 km/h
645 27-09-2020 05:40:00 9.6 C 8.79 g/m*3 9.6 C 0 km/h
646 27-09-2020 05:45:00 9.6 C 8.79 g/m*3 9.6 C 0 km/h
647 27-09-2020 05:50:00 9.6 C 8.79 g/m*3 9.6 C 0 km/h
648 27-09-2020 05:55:00 9.6 C 8.79 g/m*3 9.6 C 0 km/h
649 27-09-2020 06:00:00 9.6 C 8.79 g/m*3 9.6 C 0 km/h
650 27-09-2020 06:05:00 9.6 C 8.79 g/m*3 9.6 C 0 km/h
Sensor: Nr:Datum:Temp:Abs-Feuchte:Windchill:Wind:
Aussen-T/F 651 27-09-2020 06:10:00 9.6 C 8.79 g/m*3 9.6 C 0 km/h
652 27-09-2020 06:15:00 9.6 C 8.79 g/m*3 9.6 C 0 km/h
653 27-09-2020 06:20:00 9.6 C 8.79 g/m*3 9.6 C 1.6 km/h
654 27-09-2020 06:25:00 9.6 C 8.79 g/m*3 9.6 C 0 km/h
655 27-09-2020 06:30:00 9.6 C 8.79 g/m*3 9.6 C 0 km/h
656 27-09-2020 06:35:00 9.6 C 8.79 g/m*3 9.6 C 0 km/h
657 27-09-2020 06:40:00 9.6 C 8.79 g/m*3 9.6 C 1.6 km/h
658 27-09-2020 06:45:00 9.6 C 8.79 g/m*3 9.6 C 0 km/h
659 27-09-2020 06:50:00 9.6 C 8.79 g/m*3 9.6 C 0 km/h
660 27-09-2020 06:55:00 9.6 C 8.79 g/m*3 9.6 C 0 km/h
661 27-09-2020 07:00:00 9.6 C 8.79 g/m*3 9.6 C 0 km/h
662 27-09-2020 07:05:00 9.6 C 8.79 g/m*3 9.6 C 0 km/h
663 27-09-2020 07:10:00 9.6 C 8.79 g/m*3 9.6 C 0 km/h
664 27-09-2020 07:15:00 9.6 C 8.79 g/m*3 9.6 C 0 km/h
665 27-09-2020 07:20:00 9.6 C 8.79 g/m*3 9.6 C 0 km/h
666 27-09-2020 07:25:00 9.6 C 8.79 g/m*3 9.6 C 0 km/h
667 27-09-2020 07:30:00 9.6 C 8.79 g/m*3 9.6 C 3.2 km/h
668 27-09-2020 07:35:00 9.6 C 8.79 g/m*3 9.6 C 0 km/h
669 27-09-2020 07:40:00 9.6 C 8.79 g/m*3 9.6 C 0 km/h
670 27-09-2020 07:45:00 9.6 C 8.79 g/m*3 9.6 C 0 km/h
671 27-09-2020 07:50:00 9.6 C 8.79 g/m*3 9.6 C 0 km/h
672 27-09-2020 07:55:00 9.6 C 8.79 g/m*3 9.6 C 0 km/h
673 27-09-2020 08:00:00 9.6 C 8.79 g/m*3 9.6 C 0 km/h
674 27-09-2020 08:05:00 9.6 C 8.79 g/m*3 9.6 C 1.6 km/h
675 27-09-2020 08:10:00 9.7 C 8.85 g/m*3 9.7 C 3.2 km/h
Sensor: Nr:Datum:Temp:Abs-Feuchte:Windchill:Wind:
Aussen-T/F 676 27-09-2020 08:15:00 9.7 C 8.94 g/m*3 9.7 C 1.6 km/h
677 27-09-2020 08:20:00 9.7 C 8.94 g/m*3 9.02 C 6.4 km/h
678 27-09-2020 08:25:00 9.7 C 8.94 g/m*3 9.7 C 0 km/h
679 27-09-2020 08:30:00 9.8 C 9 g/m*3 9.8 C 0 km/h
680 27-09-2020 08:35:00 9.8 C 9 g/m*3 9.8 C 0 km/h
681 27-09-2020 08:40:00 9.8 C 8.91 g/m*3 9.8 C 0 km/h
682 27-09-2020 08:45:00 9.9 C 8.96 g/m*3 9.9 C 0 km/h
683 27-09-2020 08:50:00 10.1 C 9.17 g/m*3 10.1 C 4.8 km/h
684 27-09-2020 08:55:00 10.2 C 9.23 g/m*3 10.2 C 0 km/h
685 27-09-2020 09:00:00 10.3 C 9.29 g/m*3 10.3 C 1.6 km/h
686 27-09-2020 09:05:00 10.4 C 9.35 g/m*3 10.4 C 1.6 km/h
687 27-09-2020 09:10:00 10.4 C 9.35 g/m*3 10.4 C 0 km/h
688 27-09-2020 09:15:00 10.4 C 9.35 g/m*3 10.4 C 0 km/h
689 27-09-2020 09:20:00 10.6 C 9.47 g/m*3 10.6 C 0 km/h
690 27-09-2020 09:25:00 10.6 C 9.37 g/m*3 10.6 C 3.2 km/h
691 27-09-2020 09:30:00 10.6 C 9.37 g/m*3 10.6 C 4.8 km/h
692 27-09-2020 09:35:00 10.7 C 9.43 g/m*3 10.7 C 4.8 km/h
693 27-09-2020 09:40:00 10.7 C 9.53 g/m*3 10.7 C 1.6 km/h
694 27-09-2020 09:45:00 10.8 C 9.59 g/m*3 10.8 C 1.6 km/h
695 27-09-2020 09:50:00 10.8 C 9.59 g/m*3 10.8 C 4.8 km/h
696 27-09-2020 09:55:00 10.8 C 9.49 g/m*3 10.8 C 1.6 km/h
697 27-09-2020 10:00:00 10.9 C 9.55 g/m*3 10.9 C 0 km/h
698 27-09-2020 10:05:00 10.9 C 9.55 g/m*3 10.9 C 1.6 km/h
699 27-09-2020 10:10:00 10.9 C 9.55 g/m*3 10.9 C 0 km/h
700 27-09-2020 10:15:00 11 C 9.61 g/m*3 11 C 1.6 km/h
Sensor: Nr:Datum:Temp:Abs-Feuchte:Windchill:Wind:
Aussen-T/F 701 27-09-2020 10:20:00 11.1 C 9.67 g/m*3 11.1 C 1.6 km/h
702 27-09-2020 10:25:00 11.2 C 9.73 g/m*3 11.2 C 0 km/h
703 27-09-2020 10:30:00 11.3 C 9.79 g/m*3 11.3 C 1.6 km/h
704 27-09-2020 10:35:00 11.3 C 9.79 g/m*3 11.3 C 3.2 km/h
705 27-09-2020 10:40:00 11.4 C 9.85 g/m*3 11.4 C 1.6 km/h
706 27-09-2020 10:45:00 11.6 C 9.98 g/m*3 11.6 C 1.6 km/h
707 27-09-2020 10:50:00 11.7 C 10.04 g/m*3 11.7 C 6.4 km/h
708 27-09-2020 10:55:00 11.6 C 9.87 g/m*3 11.6 C 4.8 km/h
709 27-09-2020 11:00:00 11.7 C 9.94 g/m*3 11.7 C 4.8 km/h
710 27-09-2020 11:05:00 11.7 C 9.94 g/m*3 11.7 C 3.2 km/h
711 27-09-2020 11:10:00 11.8 C 10 g/m*3 11.8 C 1.6 km/h
712 27-09-2020 11:15:00 11.9 C 9.96 g/m*3 11.9 C 3.2 km/h
713 27-09-2020 11:20:00 12 C 10.02 g/m*3 12 C 4.8 km/h
714 27-09-2020 11:25:00 12 C 9.91 g/m*3 12 C 6.4 km/h
715 27-09-2020 11:30:00 12.1 C 9.87 g/m*3 12.1 C 4.8 km/h
716 27-09-2020 11:35:00 12.2 C 9.93 g/m*3 12.2 C 4.8 km/h
717 27-09-2020 11:40:00 12.2 C 9.93 g/m*3 12.2 C 6.4 km/h
718 27-09-2020 11:45:00 12.2 C 9.82 g/m*3 12.2 C 6.4 km/h
719 27-09-2020 11:50:00 12.2 C 9.71 g/m*3 12.2 C 4.8 km/h
720 27-09-2020 11:55:00 12.3 C 9.66 g/m*3 12.3 C 9.7 km/h
721 27-09-2020 12:00:00 12.4 C 9.72 g/m*3 12.4 C 1.6 km/h
722 27-09-2020 12:05:00 12.5 C 9.89 g/m*3 12.5 C 6.4 km/h
723 27-09-2020 12:10:00 12.7 C 9.91 g/m*3 12.7 C 6.4 km/h
724 27-09-2020 12:15:00 12.7 C 9.8 g/m*3 12.7 C 6.4 km/h
725 27-09-2020 12:20:00 12.7 C 9.8 g/m*3 12.7 C 3.2 km/h
Sensor: Nr:Datum:Temp:Abs-Feuchte:Windchill:Wind:
Aussen-T/F 726 27-09-2020 12:25:00 12.7 C 9.68 g/m*3 12.7 C 3.2 km/h
727 27-09-2020 12:30:00 12.7 C 9.8 g/m*3 12.7 C 11.3 km/h
728 27-09-2020 12:35:00 12.6 C 9.74 g/m*3 12.6 C 9.7 km/h
729 27-09-2020 12:40:00 12.5 C 9.89 g/m*3 12.5 C 3.2 km/h
730 27-09-2020 12:45:00 12.6 C 9.96 g/m*3 12.6 C 4.8 km/h
731 27-09-2020 12:50:00 12.6 C 9.96 g/m*3 12.6 C 4.8 km/h
732 27-09-2020 12:55:00 12.7 C 10.02 g/m*3 12.7 C 4.8 km/h
733 27-09-2020 13:00:00 12.8 C 10.08 g/m*3 12.8 C 4.8 km/h
734 27-09-2020 13:05:00 12.9 C 10.03 g/m*3 12.9 C 1.6 km/h
735 27-09-2020 13:10:00 13.1 C 10.04 g/m*3 13.1 C 9.7 km/h
736 27-09-2020 13:15:00 13.2 C 10.1 g/m*3 13.2 C 12.9 km/h
737 27-09-2020 13:20:00 13.2 C 9.87 g/m*3 13.2 C 8.1 km/h
738 27-09-2020 13:25:00 13.3 C 9.94 g/m*3 13.3 C 8.1 km/h
739 27-09-2020 13:30:00 13.3 C 9.94 g/m*3 13.3 C 6.4 km/h
740 27-09-2020 13:35:00 13.4 C 9.88 g/m*3 13.4 C 4.8 km/h
741 27-09-2020 13:40:00 13.6 C 10 g/m*3 13.6 C 8.1 km/h
742 27-09-2020 13:45:00 13.7 C 10.07 g/m*3 13.7 C 6.4 km/h
743 27-09-2020 13:50:00 13.6 C 10 g/m*3 13.6 C 8.1 km/h
744 27-09-2020 13:55:00 13.6 C 10 g/m*3 13.6 C 1.6 km/h
745 27-09-2020 14:00:00 13.5 C 9.71 g/m*3 13.5 C 6.4 km/h
746 27-09-2020 14:05:00 13.5 C 9.71 g/m*3 13.5 C 4.8 km/h
747 27-09-2020 14:10:00 13.6 C 9.77 g/m*3 13.6 C 6.4 km/h
748 27-09-2020 14:15:00 13.6 C 9.53 g/m*3 13.6 C 12.9 km/h
749 27-09-2020 14:20:00 13.6 C 9.65 g/m*3 13.6 C 4.8 km/h
750 27-09-2020 14:25:00 13.7 C 9.59 g/m*3 13.7 C 6.4 km/h
Sensor: Nr:Datum:Temp:Abs-Feuchte:Windchill:Wind:
Aussen-T/F 751 27-09-2020 14:30:00 13.8 C 9.65 g/m*3 13.8 C 3.2 km/h
752 27-09-2020 14:35:00 13.8 C 9.41 g/m*3 13.8 C 6.4 km/h
753 27-09-2020 14:40:00 13.8 C 9.41 g/m*3 13.8 C 3.2 km/h
754 27-09-2020 14:45:00 13.8 C 9.53 g/m*3 13.8 C 6.4 km/h
755 27-09-2020 14:50:00 13.8 C 9.65 g/m*3 13.8 C 9.7 km/h
756 27-09-2020 14:55:00 13.8 C 9.41 g/m*3 13.8 C 6.4 km/h
757 27-09-2020 15:00:00 13.8 C 9.41 g/m*3 13.8 C 4.8 km/h
758 27-09-2020 15:05:00 13.8 C 9.53 g/m*3 13.8 C 6.4 km/h
759 27-09-2020 15:10:00 13.7 C 9.47 g/m*3 13.7 C 4.8 km/h
760 27-09-2020 15:15:00 13.6 C 9.3 g/m*3 13.6 C 0 km/h
761 27-09-2020 15:20:00 13.5 C 9.36 g/m*3 13.5 C 4.8 km/h
762 27-09-2020 15:25:00 13.4 C 9.3 g/m*3 13.4 C 4.8 km/h
763 27-09-2020 15:30:00 13.3 C 9.24 g/m*3 13.3 C 4.8 km/h
764 27-09-2020 15:35:00 13.2 C 9.3 g/m*3 13.2 C 0 km/h
765 27-09-2020 15:40:00 13.1 C 9.36 g/m*3 13.1 C 3.2 km/h
766 27-09-2020 15:45:00 13.1 C 9.36 g/m*3 13.1 C 0 km/h
767 27-09-2020 15:50:00 13.1 C 9.24 g/m*3 13.1 C 3.2 km/h
768 27-09-2020 15:55:00 13.1 C 9.36 g/m*3 13.1 C 1.6 km/h
769 27-09-2020 16:00:00 13.1 C 9.47 g/m*3 13.1 C 1.6 km/h
770 27-09-2020 16:05:00 13.1 C 9.36 g/m*3 13.1 C 1.6 km/h
771 27-09-2020 16:10:00 13.1 C 9.36 g/m*3 13.1 C 1.6 km/h
772 27-09-2020 16:15:00 13.2 C 9.53 g/m*3 13.2 C 1.6 km/h
773 27-09-2020 16:20:00 13.2 C 9.53 g/m*3 13.2 C 1.6 km/h
774 27-09-2020 16:25:00 13.2 C 9.53 g/m*3 13.2 C 1.6 km/h
775 27-09-2020 16:30:00 13.1 C 9.36 g/m*3 13.1 C 4.8 km/h
Sensor: Nr:Datum:Temp:Abs-Feuchte:Windchill:Wind:
Aussen-T/F 776 27-09-2020 16:35:00 13.2 C 9.64 g/m*3 13.2 C 0 km/h
777 27-09-2020 16:40:00 13.1 C 9.59 g/m*3 13.1 C 0 km/h
778 27-09-2020 16:45:00 13.1 C 9.59 g/m*3 13.1 C 0 km/h
779 27-09-2020 16:50:00 13.1 C 9.47 g/m*3 13.1 C 3.2 km/h
780 27-09-2020 16:55:00 13.1 C 9.59 g/m*3 13.1 C 1.6 km/h
781 27-09-2020 17:00:00 13.1 C 9.47 g/m*3 13.1 C 0 km/h
782 27-09-2020 17:05:00 13.1 C 9.59 g/m*3 13.1 C 0 km/h
783 27-09-2020 17:10:00 13.1 C 9.59 g/m*3 13.1 C 0 km/h
784 27-09-2020 17:15:00 13.1 C 9.59 g/m*3 13.1 C 0 km/h
785 27-09-2020 17:20:00 13.1 C 9.81 g/m*3 13.1 C 0 km/h
786 27-09-2020 17:25:00 13.2 C 9.99 g/m*3 13.2 C 0 km/h
787 27-09-2020 17:30:00 13.2 C 9.99 g/m*3 13.2 C 0 km/h
788 27-09-2020 17:35:00 13.2 C 9.99 g/m*3 13.2 C 0 km/h
789 27-09-2020 17:40:00 13.1 C 9.93 g/m*3 13.1 C 0 km/h
790 27-09-2020 17:45:00 13.1 C 9.93 g/m*3 13.1 C 0 km/h
791 27-09-2020 17:50:00 13 C 9.87 g/m*3 13 C 0 km/h
792 27-09-2020 17:55:00 12.9 C 9.92 g/m*3 12.9 C 0 km/h
793 27-09-2020 18:00:00 12.8 C 9.86 g/m*3 12.8 C 0 km/h
794 27-09-2020 18:05:00 12.8 C 9.86 g/m*3 12.8 C 0 km/h
795 27-09-2020 18:10:00 12.7 C 9.91 g/m*3 12.7 C 0 km/h
796 27-09-2020 18:15:00 12.7 C 9.91 g/m*3 12.7 C 0 km/h
797 27-09-2020 18:20:00 12.6 C 9.85 g/m*3 12.6 C 0 km/h
798 27-09-2020 18:25:00 12.5 C 9.78 g/m*3 12.5 C 1.6 km/h
799 27-09-2020 18:30:00 12.4 C 9.72 g/m*3 12.4 C 1.6 km/h
800 27-09-2020 18:35:00 12.3 C 9.66 g/m*3 12.3 C 3.2 km/h
Sensor: Nr:Datum:Temp:Abs-Feuchte:Windchill:Wind:
Aussen-T/F 801 27-09-2020 18:40:00 12.2 C 9.6 g/m*3 12.2 C 4.8 km/h
802 27-09-2020 18:45:00 12 C 9.48 g/m*3 12 C 4.8 km/h
803 27-09-2020 18:50:00 11.9 C 9.43 g/m*3 11.9 C 4.8 km/h
804 27-09-2020 18:55:00 11.8 C 9.37 g/m*3 11.8 C 4.8 km/h
805 27-09-2020 19:00:00 11.7 C 9.31 g/m*3 11.7 C 1.6 km/h
806 27-09-2020 19:05:00 11.6 C 9.35 g/m*3 11.6 C 1.6 km/h
807 27-09-2020 19:10:00 11.6 C 9.35 g/m*3 11.6 C 1.6 km/h
808 27-09-2020 19:15:00 11.4 C 9.24 g/m*3 11.4 C 1.6 km/h
809 27-09-2020 19:20:00 11.4 C 9.24 g/m*3 11.4 C 3.2 km/h
810 27-09-2020 19:25:00 11.3 C 9.18 g/m*3 11.3 C 3.2 km/h
811 27-09-2020 19:30:00 11.2 C 9.12 g/m*3 11.2 C 3.2 km/h
812 27-09-2020 19:35:00 11.2 C 9.12 g/m*3 11.2 C 1.6 km/h
813 27-09-2020 19:40:00 11.2 C 9.22 g/m*3 11.2 C 1.6 km/h
814 27-09-2020 19:45:00 11.2 C 9.22 g/m*3 11.2 C 3.2 km/h
815 27-09-2020 19:50:00 11.1 C 9.17 g/m*3 11.1 C 3.2 km/h
816 27-09-2020 19:55:00 11.1 C 9.17 g/m*3 11.1 C 3.2 km/h
817 27-09-2020 20:00:00 11.1 C 9.17 g/m*3 11.1 C 3.2 km/h
818 27-09-2020 20:05:00 11 C 9.11 g/m*3 11 C 1.6 km/h
819 27-09-2020 20:10:00 11 C 9.11 g/m*3 11 C 0 km/h
820 27-09-2020 20:15:00 10.9 C 9.15 g/m*3 10.9 C 1.6 km/h
821 27-09-2020 20:20:00 10.9 C 9.15 g/m*3 10.9 C 1.6 km/h
822 27-09-2020 20:25:00 10.9 C 9.15 g/m*3 10.9 C 3.2 km/h
823 27-09-2020 20:30:00 10.9 C 9.15 g/m*3 10.9 C 3.2 km/h
824 27-09-2020 20:35:00 10.8 C 9.09 g/m*3 10.8 C 1.6 km/h
825 27-09-2020 20:40:00 10.8 C 9.09 g/m*3 10.8 C 3.2 km/h
Sensor: Nr:Datum:Temp:Abs-Feuchte:Windchill:Wind:
Aussen-T/F 826 27-09-2020 20:45:00 10.8 C 9.09 g/m*3 10.8 C 1.6 km/h
827 27-09-2020 20:50:00 10.8 C 9.09 g/m*3 10.8 C 1.6 km/h
828 27-09-2020 20:55:00 10.8 C 9.09 g/m*3 10.8 C 1.6 km/h
829 27-09-2020 21:00:00 10.8 C 9.09 g/m*3 10.8 C 0 km/h
830 27-09-2020 21:05:00 10.8 C 9.09 g/m*3 10.8 C 0 km/h
831 27-09-2020 21:10:00 10.8 C 9.19 g/m*3 10.8 C 0 km/h
832 27-09-2020 21:15:00 10.8 C 9.19 g/m*3 10.8 C 3.2 km/h
833 27-09-2020 21:20:00 10.8 C 9.19 g/m*3 10.8 C 3.2 km/h
834 27-09-2020 21:25:00 10.7 C 9.13 g/m*3 10.7 C 3.2 km/h
835 27-09-2020 21:30:00 10.7 C 9.13 g/m*3 10.7 C 1.6 km/h
836 27-09-2020 21:35:00 10.7 C 9.13 g/m*3 10.7 C 0 km/h
837 27-09-2020 21:40:00 10.7 C 9.13 g/m*3 10.7 C 0 km/h
838 27-09-2020 21:45:00 10.7 C 9.13 g/m*3 10.7 C 0 km/h
839 27-09-2020 21:50:00 10.7 C 9.13 g/m*3 10.7 C 3.2 km/h
840 27-09-2020 21:55:00 10.7 C 9.13 g/m*3 10.7 C 3.2 km/h
841 27-09-2020 22:00:00 10.7 C 9.13 g/m*3 10.7 C 1.6 km/h
842 27-09-2020 22:05:00 10.7 C 9.13 g/m*3 10.7 C 0 km/h
843 27-09-2020 22:10:00 10.7 C 9.13 g/m*3 10.7 C 0 km/h
844 27-09-2020 22:15:00 10.7 C 9.13 g/m*3 10.7 C 0 km/h
845 27-09-2020 22:20:00 10.7 C 9.13 g/m*3 10.7 C 0 km/h
846 27-09-2020 22:25:00 10.7 C 9.13 g/m*3 10.7 C 0 km/h
847 27-09-2020 22:30:00 10.7 C 9.13 g/m*3 10.7 C 0 km/h
848 27-09-2020 22:35:00 10.6 C 9.08 g/m*3 10.6 C 0 km/h
849 27-09-2020 22:40:00 10.6 C 9.08 g/m*3 10.6 C 1.6 km/h
850 27-09-2020 22:45:00 10.6 C 9.08 g/m*3 10.6 C 0 km/h
Sensor: Nr:Datum:Temp:Abs-Feuchte:Windchill:Wind:
Aussen-T/F 851 27-09-2020 22:50:00 10.6 C 9.08 g/m*3 10.6 C 0 km/h
852 27-09-2020 22:55:00 10.6 C 9.08 g/m*3 10.6 C 0 km/h
853 27-09-2020 23:00:00 10.6 C 9.08 g/m*3 10.6 C 1.6 km/h
854 27-09-2020 23:05:00 10.5 C 9.02 g/m*3 10.5 C 3.2 km/h
855 27-09-2020 23:10:00 10.5 C 9.02 g/m*3 10.5 C 0 km/h
856 27-09-2020 23:15:00 10.5 C 9.12 g/m*3 10.5 C 1.6 km/h
857 27-09-2020 23:20:00 10.4 C 9.06 g/m*3 10.4 C 3.2 km/h
858 27-09-2020 23:25:00 10.4 C 9.06 g/m*3 10.4 C 1.6 km/h
859 27-09-2020 23:30:00 10.4 C 9.06 g/m*3 10.4 C 1.6 km/h
860 27-09-2020 23:35:00 10.4 C 9.06 g/m*3 10.4 C 0 km/h
861 27-09-2020 23:40:00 10.4 C 9.06 g/m*3 10.4 C 1.6 km/h
862 27-09-2020 23:45:00 10.4 C 9.06 g/m*3 10.4 C 0 km/h
863 27-09-2020 23:50:00 10.4 C 9.06 g/m*3 10.4 C 0 km/h
864 27-09-2020 23:55:00 10.4 C 9.06 g/m*3 10.4 C 3.2 km/h
865 28-09-2020 00:00:00 10.4 C 9.06 g/m*3 10.4 C 3.2 km/h
866 28-09-2020 00:05:00 10.4 C 9.06 g/m*3 10.4 C 3.2 km/h
867 28-09-2020 00:10:00 10.4 C 9.06 g/m*3 10.4 C 4.8 km/h
868 28-09-2020 00:15:00 10.4 C 9.06 g/m*3 10.4 C 1.6 km/h
869 28-09-2020 00:20:00 10.4 C 9.06 g/m*3 10.4 C 0 km/h
870 28-09-2020 00:25:00 10.4 C 9.06 g/m*3 10.4 C 0 km/h
871 28-09-2020 00:30:00 10.4 C 9.06 g/m*3 10.4 C 0 km/h
872 28-09-2020 00:35:00 10.4 C 9.06 g/m*3 10.4 C 0 km/h
873 28-09-2020 00:40:00 10.4 C 9.06 g/m*3 10.4 C 0 km/h
874 28-09-2020 00:45:00 10.4 C 9.06 g/m*3 10.4 C 1.6 km/h
875 28-09-2020 00:50:00 10.4 C 9.06 g/m*3 10.4 C 1.6 km/h
Sensor: Nr:Datum:Temp:Abs-Feuchte:Windchill:Wind:
Aussen-T/F 876 28-09-2020 00:55:00 10.5 C 9.12 g/m*3 10.5 C 0 km/h
877 28-09-2020 01:00:00 10.5 C 9.12 g/m*3 10.5 C 0 km/h
878 28-09-2020 01:05:00 10.5 C 9.12 g/m*3 10.5 C 0 km/h
879 28-09-2020 01:10:00 10.5 C 9.12 g/m*3 10.5 C 0 km/h
880 28-09-2020 01:15:00 10.5 C 9.12 g/m*3 10.5 C 0 km/h
881 28-09-2020 01:20:00 10.5 C 9.12 g/m*3 10.5 C 0 km/h
882 28-09-2020 01:25:00 10.5 C 9.12 g/m*3 10.5 C 3.2 km/h
883 28-09-2020 01:30:00 10.5 C 9.12 g/m*3 10.5 C 0 km/h
884 28-09-2020 01:35:00 10.5 C 9.12 g/m*3 10.5 C 0 km/h
885 28-09-2020 01:40:00 10.5 C 9.12 g/m*3 10.5 C 0 km/h
886 28-09-2020 01:45:00 10.5 C 9.12 g/m*3 10.5 C 1.6 km/h
887 28-09-2020 01:50:00 10.5 C 9.12 g/m*3 10.5 C 1.6 km/h
888 28-09-2020 01:55:00 10.5 C 9.12 g/m*3 10.5 C 1.6 km/h
889 28-09-2020 02:00:00 10.5 C 9.12 g/m*3 10.5 C 1.6 km/h
890 28-09-2020 02:05:00 10.5 C 9.12 g/m*3 10.5 C 0 km/h
891 28-09-2020 02:10:00 10.4 C 9.06 g/m*3 10.4 C 3.2 km/h
892 28-09-2020 02:15:00 10.4 C 9.06 g/m*3 10.4 C 0 km/h
893 28-09-2020 02:20:00 10.4 C 9.06 g/m*3 10.4 C 0 km/h
894 28-09-2020 02:25:00 10.4 C 9.06 g/m*3 10.4 C 3.2 km/h
895 28-09-2020 02:30:00 10.4 C 9.06 g/m*3 10.4 C 3.2 km/h
896 28-09-2020 02:35:00 10.4 C 9.06 g/m*3 10.4 C 3.2 km/h
897 28-09-2020 02:40:00 10.4 C 9.06 g/m*3 10.4 C 0 km/h
898 28-09-2020 02:45:00 10.3 C 9 g/m*3 10.3 C 0 km/h
899 28-09-2020 02:50:00 10.3 C 9 g/m*3 10.3 C 0 km/h
900 28-09-2020 02:55:00 10.3 C 9 g/m*3 10.3 C 1.6 km/h
Sensor: Nr:Datum:Temp:Abs-Feuchte:Windchill:Wind:
Aussen-T/F 901 28-09-2020 03:00:00 10.3 C 9 g/m*3 10.3 C 0 km/h
902 28-09-2020 03:05:00 10.2 C 8.95 g/m*3 10.2 C 0 km/h
903 28-09-2020 03:10:00 10.2 C 8.95 g/m*3 10.2 C 0 km/h
904 28-09-2020 03:15:00 10.2 C 8.95 g/m*3 10.2 C 0 km/h
905 28-09-2020 03:20:00 10.2 C 8.95 g/m*3 10.2 C 0 km/h
906 28-09-2020 03:25:00 10.2 C 8.95 g/m*3 10.2 C 0 km/h
907 28-09-2020 03:30:00 10.2 C 8.95 g/m*3 10.2 C 0 km/h
908 28-09-2020 03:35:00 10.2 C 8.95 g/m*3 10.2 C 0 km/h
909 28-09-2020 03:40:00 10.2 C 8.95 g/m*3 10.2 C 0 km/h
910 28-09-2020 03:45:00 10.2 C 8.95 g/m*3 10.2 C 0 km/h
911 28-09-2020 03:50:00 10.2 C 9.04 g/m*3 10.2 C 0 km/h
912 28-09-2020 03:55:00 10.2 C 9.04 g/m*3 10.2 C 0 km/h
913 28-09-2020 04:00:00 10.2 C 9.04 g/m*3 10.2 C 0 km/h
914 28-09-2020 04:05:00 10.2 C 9.04 g/m*3 10.2 C 0 km/h
915 28-09-2020 04:10:00 10.2 C 9.04 g/m*3 10.2 C 0 km/h
916 28-09-2020 04:15:00 10.2 C 8.95 g/m*3 10.2 C 0 km/h
917 28-09-2020 04:20:00 10.2 C 8.95 g/m*3 10.2 C 0 km/h
918 28-09-2020 04:25:00 10.1 C 8.89 g/m*3 10.1 C 0 km/h
919 28-09-2020 04:30:00 10.1 C 8.89 g/m*3 10.1 C 3.2 km/h
920 28-09-2020 04:35:00 10.1 C 8.89 g/m*3 10.1 C 1.6 km/h
921 28-09-2020 04:40:00 10.1 C 8.98 g/m*3 10.1 C 0 km/h
922 28-09-2020 04:45:00 10.1 C 8.98 g/m*3 10.1 C 0 km/h
923 28-09-2020 04:50:00 10.2 C 9.04 g/m*3 10.2 C 0 km/h
924 28-09-2020 04:55:00 10.2 C 9.04 g/m*3 10.2 C 0 km/h
925 28-09-2020 05:00:00 10.2 C 9.04 g/m*3 10.2 C 0 km/h
Sensor: Nr:Datum:Temp:Abs-Feuchte:Windchill:Wind:
Aussen-T/F 926 28-09-2020 05:05:00 10.2 C 9.04 g/m*3 10.2 C 0 km/h
927 28-09-2020 05:10:00 10.1 C 8.98 g/m*3 10.1 C 0 km/h
928 28-09-2020 05:15:00 10.1 C 8.98 g/m*3 10.1 C 0 km/h
929 28-09-2020 05:20:00 10.1 C 8.98 g/m*3 10.1 C 0 km/h
930 28-09-2020 05:25:00 10.1 C 8.89 g/m*3 10.1 C 3.2 km/h
931 28-09-2020 05:30:00 10.1 C 8.89 g/m*3 10.1 C 1.6 km/h
932 28-09-2020 05:35:00 10.1 C 8.89 g/m*3 10.1 C 0 km/h
933 28-09-2020 05:40:00 10.1 C 8.89 g/m*3 10.1 C 0 km/h
934 28-09-2020 05:45:00 10.1 C 8.89 g/m*3 10.1 C 0 km/h
935 28-09-2020 05:50:00 10.1 C 8.89 g/m*3 10.1 C 0 km/h
936 28-09-2020 05:55:00 10.1 C 8.89 g/m*3 10.1 C 0 km/h
937 28-09-2020 06:00:00 10.1 C 8.89 g/m*3 10.1 C 0 km/h
938 28-09-2020 06:05:00 10.1 C 8.89 g/m*3 10.1 C 0 km/h
939 28-09-2020 06:10:00 10.2 C 8.95 g/m*3 10.2 C 0 km/h
940 28-09-2020 06:15:00 10.1 C 8.89 g/m*3 10.1 C 0 km/h
941 28-09-2020 06:20:00 10.2 C 9.04 g/m*3 10.2 C 1.6 km/h
942 28-09-2020 06:25:00 10.2 C 9.04 g/m*3 10.2 C 0 km/h
943 28-09-2020 06:30:00 10.1 C 8.98 g/m*3 10.1 C 1.6 km/h
944 28-09-2020 06:35:00 10.1 C 8.98 g/m*3 10.1 C 1.6 km/h
945 28-09-2020 06:40:00 10.1 C 8.89 g/m*3 10.1 C 3.2 km/h
946 28-09-2020 06:45:00 10.1 C 8.89 g/m*3 10.1 C 0 km/h
947 28-09-2020 06:50:00 10.1 C 8.89 g/m*3 10.1 C 0 km/h
948 28-09-2020 06:55:00 10.1 C 8.89 g/m*3 10.1 C 0 km/h
949 28-09-2020 07:00:00 10.1 C 8.89 g/m*3 10.1 C 0 km/h
950 28-09-2020 07:05:00 10.1 C 8.89 g/m*3 10.1 C 1.6 km/h
Sensor: Nr:Datum:Temp:Abs-Feuchte:Windchill:Wind:
Aussen-T/F 951 28-09-2020 07:10:00 10.1 C 8.89 g/m*3 10.1 C 0 km/h
952 28-09-2020 07:15:00 10.1 C 8.89 g/m*3 10.1 C 0 km/h
953 28-09-2020 07:20:00 10 C 8.83 g/m*3 10 C 0 km/h
954 28-09-2020 07:25:00 10 C 8.83 g/m*3 10 C 0 km/h
955 28-09-2020 07:30:00 10 C 8.83 g/m*3 10 C 0 km/h
956 28-09-2020 07:35:00 10.1 C 8.89 g/m*3 10.1 C 0 km/h
957 28-09-2020 07:40:00 10.1 C 8.79 g/m*3 10.1 C 0 km/h
958 28-09-2020 07:45:00 10.1 C 8.79 g/m*3 10.1 C 0 km/h
959 28-09-2020 07:50:00 10.1 C 8.89 g/m*3 10.1 C 0 km/h
960 28-09-2020 07:55:00 10.1 C 8.89 g/m*3 10.1 C 1.6 km/h
961 28-09-2020 08:00:00 10.2 C 8.95 g/m*3 10.2 C 0 km/h
962 28-09-2020 08:05:00 10.2 C 8.95 g/m*3 10.2 C 0 km/h
963 28-09-2020 08:10:00 10.2 C 8.95 g/m*3 10.2 C 0 km/h
964 28-09-2020 08:15:00 10.2 C 8.95 g/m*3 10.2 C 0 km/h
965 28-09-2020 08:20:00 10.2 C 8.95 g/m*3 10.2 C 0 km/h
966 28-09-2020 08:25:00 10.3 C 9 g/m*3 10.3 C 0 km/h
967 28-09-2020 08:30:00 10.3 C 9 g/m*3 10.3 C 0 km/h
968 28-09-2020 08:35:00 10.3 C 9 g/m*3 10.3 C 0 km/h
969 28-09-2020 08:40:00 10.3 C 9 g/m*3 10.3 C 0 km/h
970 28-09-2020 08:45:00 10.4 C 9.06 g/m*3 10.4 C 0 km/h
971 28-09-2020 08:50:00 10.4 C 9.06 g/m*3 10.4 C 0 km/h
972 28-09-2020 08:55:00 10.5 C 9.12 g/m*3 10.5 C 0 km/h
973 28-09-2020 09:00:00 10.6 C 9.17 g/m*3 10.6 C 0 km/h
974 28-09-2020 09:05:00 10.6 C 9.17 g/m*3 10.6 C 0 km/h
975 28-09-2020 09:10:00 10.6 C 9.08 g/m*3 10.6 C 0 km/h
Sensor: Nr:Datum:Temp:Abs-Feuchte:Windchill:Wind:
Aussen-T/F 976 28-09-2020 09:15:00 10.6 C 9.08 g/m*3 10.6 C 0 km/h
977 28-09-2020 09:20:00 10.7 C 9.04 g/m*3 10.7 C 1.6 km/h
978 28-09-2020 09:25:00 10.7 C 9.04 g/m*3 10.7 C 1.6 km/h
979 28-09-2020 09:30:00 10.8 C 8.99 g/m*3 10.8 C 0 km/h
980 28-09-2020 09:35:00 10.8 C 9.09 g/m*3 10.8 C 0 km/h
981 28-09-2020 09:40:00 10.9 C 9.05 g/m*3 10.9 C 1.6 km/h
982 28-09-2020 09:45:00 10.9 C 8.95 g/m*3 10.9 C 0 km/h
983 28-09-2020 09:50:00 11.1 C 9.07 g/m*3 11.1 C 0 km/h
984 28-09-2020 09:55:00 11.2 C 9.12 g/m*3 11.2 C 0 km/h
985 28-09-2020 10:00:00 11.3 C 9.08 g/m*3 11.3 C 1.6 km/h
986 28-09-2020 10:05:00 11.4 C 9.14 g/m*3 11.4 C 0 km/h
987 28-09-2020 10:10:00 11.5 C 9.09 g/m*3 11.5 C 4.8 km/h
988 28-09-2020 10:15:00 11.7 C 9.1 g/m*3 11.7 C 1.6 km/h
989 28-09-2020 10:20:00 11.8 C 9.16 g/m*3 11.8 C 3.2 km/h
990 28-09-2020 10:25:00 11.9 C 9 g/m*3 11.9 C 4.8 km/h
991 28-09-2020 10:30:00 12 C 9.06 g/m*3 12 C 1.6 km/h
992 28-09-2020 10:35:00 12.1 C 9.01 g/m*3 12.1 C 3.2 km/h
993 28-09-2020 10:40:00 12.1 C 9.01 g/m*3 12.1 C 1.6 km/h
994 28-09-2020 10:45:00 12.2 C 9.06 g/m*3 12.2 C 4.8 km/h
995 28-09-2020 10:50:00 12.3 C 9.12 g/m*3 12.3 C 3.2 km/h
996 28-09-2020 10:55:00 12.4 C 9.07 g/m*3 12.4 C 1.6 km/h
997 28-09-2020 11:00:00 12.5 C 9.02 g/m*3 12.5 C 8.1 km/h
998 28-09-2020 11:05:00 12.6 C 9.07 g/m*3 12.6 C 3.2 km/h
999 28-09-2020 11:10:00 12.7 C 9.13 g/m*3 12.7 C 3.2 km/h
1000 28-09-2020 11:15:00 12.8 C 9.07 g/m*3 12.8 C 1.6 km/h
Sensor: Nr:Datum:Temp:Abs-Feuchte:Windchill:Wind:
Aussen-T/F 1001 28-09-2020 11:20:00 12.9 C 9.13 g/m*3 12.9 C 3.2 km/h
1002 28-09-2020 11:25:00 13 C 9.07 g/m*3 13 C 6.4 km/h
1003 28-09-2020 11:30:00 13.1 C 9.13 g/m*3 13.1 C 8.1 km/h
1004 28-09-2020 11:35:00 13.1 C 9.13 g/m*3 13.1 C 6.4 km/h
1005 28-09-2020 11:40:00 13.2 C 9.19 g/m*3 13.2 C 6.4 km/h
1006 28-09-2020 11:45:00 13.2 C 9.19 g/m*3 13.2 C 3.2 km/h
1007 28-09-2020 11:50:00 13.3 C 9.24 g/m*3 13.3 C 3.2 km/h
1008 28-09-2020 11:55:00 13.4 C 9.3 g/m*3 13.4 C 6.4 km/h
1009 28-09-2020 12:00:00 13.5 C 9.24 g/m*3 13.5 C 4.8 km/h
1010 28-09-2020 12:05:00 13.6 C 9.06 g/m*3 13.6 C 3.2 km/h
1011 28-09-2020 12:10:00 13.6 C 9.06 g/m*3 13.6 C 3.2 km/h
1012 28-09-2020 12:15:00 13.6 C 9.18 g/m*3 13.6 C 3.2 km/h
1013 28-09-2020 12:20:00 13.6 C 9.18 g/m*3 13.6 C 3.2 km/h
1014 28-09-2020 12:25:00 13.6 C 9.06 g/m*3 13.6 C 1.6 km/h
1015 28-09-2020 12:30:00 13.7 C 9.24 g/m*3 13.7 C 0 km/h
1016 28-09-2020 12:35:00 13.7 C 9.24 g/m*3 13.7 C 3.2 km/h
1017 28-09-2020 12:40:00 13.8 C 9.06 g/m*3 13.8 C 8.1 km/h
1018 28-09-2020 12:45:00 13.9 C 8.87 g/m*3 13.9 C 6.4 km/h
1019 28-09-2020 12:50:00 14 C 8.93 g/m*3 14 C 6.4 km/h
1020 28-09-2020 12:55:00 14.1 C 9.22 g/m*3 14.1 C 9.7 km/h
1021 28-09-2020 13:00:00 14.1 C 9.1 g/m*3 14.1 C 9.7 km/h
1022 28-09-2020 13:05:00 14 C 9.17 g/m*3 14 C 8.1 km/h
1023 28-09-2020 13:10:00 13.9 C 8.99 g/m*3 13.9 C 11.3 km/h
1024 28-09-2020 13:15:00 13.9 C 9.11 g/m*3 13.9 C 8.1 km/h
1025 28-09-2020 13:20:00 13.9 C 9.11 g/m*3 13.9 C 8.1 km/h
Sensor: Nr:Datum:Temp:Abs-Feuchte:Windchill:Wind:
Aussen-T/F 1026 28-09-2020 13:25:00 13.8 C 9.29 g/m*3 13.8 C 6.4 km/h
1027 28-09-2020 13:30:00 13.8 C 9.53 g/m*3 13.8 C 6.4 km/h
1028 28-09-2020 13:35:00 13.7 C 9.59 g/m*3 13.7 C 3.2 km/h
1029 28-09-2020 13:40:00 13.7 C 9.59 g/m*3 13.7 C 4.8 km/h
1030 28-09-2020 13:45:00 13.6 C 9.53 g/m*3 13.6 C 1.6 km/h
1031 28-09-2020 13:50:00 13.7 C 9.71 g/m*3 13.7 C 0 km/h
1032 28-09-2020 13:55:00 13.7 C 9.59 g/m*3 13.7 C 1.6 km/h
1033 28-09-2020 14:00:00 13.7 C 9.59 g/m*3 13.7 C 0 km/h
1034 28-09-2020 14:05:00 13.7 C 9.35 g/m*3 13.7 C 3.2 km/h
1035 28-09-2020 14:10:00 13.8 C 9.41 g/m*3 13.8 C 3.2 km/h
1036 28-09-2020 14:15:00 13.8 C 9.29 g/m*3 13.8 C 1.6 km/h
1037 28-09-2020 14:20:00 13.8 C 9.29 g/m*3 13.8 C 3.2 km/h
1038 28-09-2020 14:25:00 13.9 C 9.47 g/m*3 13.9 C 1.6 km/h
1039 28-09-2020 14:30:00 14.1 C 9.59 g/m*3 14.1 C 4.8 km/h
1040 28-09-2020 14:35:00 14.2 C 9.52 g/m*3 14.2 C 3.2 km/h
1041 28-09-2020 14:40:00 14.3 C 9.46 g/m*3 14.3 C 8.1 km/h
1042 28-09-2020 14:45:00 14.3 C 9.21 g/m*3 14.3 C 8.1 km/h
1043 28-09-2020 14:50:00 14.3 C 9.34 g/m*3 14.3 C 8.1 km/h
1044 28-09-2020 14:55:00 14.3 C 9.46 g/m*3 14.3 C 3.2 km/h
1045 28-09-2020 15:00:00 14.3 C 9.34 g/m*3 14.3 C 4.8 km/h
1046 28-09-2020 15:05:00 14.3 C 9.46 g/m*3 14.3 C 1.6 km/h
1047 28-09-2020 15:10:00 14.2 C 9.4 g/m*3 14.2 C 0 km/h
1048 28-09-2020 15:15:00 14.2 C 9.16 g/m*3 14.2 C 3.2 km/h
1049 28-09-2020 15:20:00 14.2 C 9.16 g/m*3 14.2 C 3.2 km/h
1050 28-09-2020 15:25:00 14.2 C 9.16 g/m*3 14.2 C 0 km/h
Sensor: Nr:Datum:Temp:Abs-Feuchte:Windchill:Wind:
Aussen-T/F 1051 28-09-2020 15:30:00 14.3 C 9.21 g/m*3 14.3 C 4.8 km/h
1052 28-09-2020 15:35:00 14.3 C 9.21 g/m*3 14.3 C 4.8 km/h
1053 28-09-2020 15:40:00 14.3 C 8.97 g/m*3 14.3 C 9.7 km/h
1054 28-09-2020 15:45:00 14.2 C 8.79 g/m*3 14.2 C 12.9 km/h
1055 28-09-2020 15:50:00 14.2 C 8.79 g/m*3 14.2 C 6.4 km/h
1056 28-09-2020 15:55:00 14.2 C 8.91 g/m*3 14.2 C 8.1 km/h
1057 28-09-2020 16:00:00 14.2 C 8.91 g/m*3 14.2 C 6.4 km/h
1058 28-09-2020 16:05:00 14.2 C 8.91 g/m*3 14.2 C 3.2 km/h
1059 28-09-2020 16:10:00 14.2 C 9.16 g/m*3 14.2 C 4.8 km/h
1060 28-09-2020 16:15:00 14.2 C 9.16 g/m*3 14.2 C 4.8 km/h
1061 28-09-2020 16:20:00 14.1 C 9.1 g/m*3 14.1 C 9.7 km/h
1062 28-09-2020 16:25:00 14.1 C 9.22 g/m*3 14.1 C 6.4 km/h
1063 28-09-2020 16:30:00 14 C 9.17 g/m*3 14 C 9.7 km/h
1064 28-09-2020 16:35:00 13.9 C 9.11 g/m*3 13.9 C 6.4 km/h
1065 28-09-2020 16:40:00 13.9 C 9.23 g/m*3 13.9 C 9.7 km/h
1066 28-09-2020 16:45:00 13.8 C 9.17 g/m*3 13.8 C 8.1 km/h
1067 28-09-2020 16:50:00 13.7 C 9.24 g/m*3 13.7 C 6.4 km/h
1068 28-09-2020 16:55:00 13.7 C 9.24 g/m*3 13.7 C 4.8 km/h
1069 28-09-2020 17:00:00 13.7 C 9.12 g/m*3 13.7 C 6.4 km/h
1070 28-09-2020 17:05:00 13.7 C 9.24 g/m*3 13.7 C 4.8 km/h
1071 28-09-2020 17:10:00 13.7 C 9.12 g/m*3 13.7 C 4.8 km/h
1072 28-09-2020 17:15:00 13.6 C 9.06 g/m*3 13.6 C 8.1 km/h
1073 28-09-2020 17:20:00 13.6 C 9.18 g/m*3 13.6 C 4.8 km/h
1074 28-09-2020 17:25:00 13.6 C 9.06 g/m*3 13.6 C 9.7 km/h
1075 28-09-2020 17:30:00 13.6 C 9.06 g/m*3 13.6 C 6.4 km/h
Sensor: Nr:Datum:Temp:Abs-Feuchte:Windchill:Wind:
Aussen-T/F 1076 28-09-2020 17:35:00 13.5 C 9.12 g/m*3 13.5 C 6.4 km/h
1077 28-09-2020 17:40:00 13.5 C 9.12 g/m*3 13.5 C 4.8 km/h
1078 28-09-2020 17:45:00 13.4 C 9.07 g/m*3 13.4 C 3.2 km/h
1079 28-09-2020 17:50:00 13.4 C 9.07 g/m*3 13.4 C 8.1 km/h
1080 28-09-2020 17:55:00 13.4 C 9.07 g/m*3 13.4 C 4.8 km/h
1081 28-09-2020 18:00:00 13.4 C 9.18 g/m*3 13.4 C 6.4 km/h
1082 28-09-2020 18:05:00 13.3 C 9.01 g/m*3 13.3 C 6.4 km/h
1083 28-09-2020 18:10:00 13.3 C 9.13 g/m*3 13.3 C 1.6 km/h
1084 28-09-2020 18:15:00 13.3 C 9.13 g/m*3 13.3 C 3.2 km/h
1085 28-09-2020 18:20:00 13.3 C 9.24 g/m*3 13.3 C 1.6 km/h
1086 28-09-2020 18:25:00 13.3 C 9.13 g/m*3 13.3 C 1.6 km/h
1087 28-09-2020 18:30:00 13.3 C 9.36 g/m*3 13.3 C 0 km/h
1088 28-09-2020 18:35:00 13.3 C 9.36 g/m*3 13.3 C 0 km/h
1089 28-09-2020 18:40:00 13.2 C 9.3 g/m*3 13.2 C 0 km/h
1090 28-09-2020 18:45:00 13.2 C 9.3 g/m*3 13.2 C 0 km/h
1091 28-09-2020 18:50:00 13.1 C 9.36 g/m*3 13.1 C 1.6 km/h
1092 28-09-2020 18:55:00 13 C 9.41 g/m*3 13 C 1.6 km/h
1093 28-09-2020 19:00:00 12.9 C 9.47 g/m*3 12.9 C 0 km/h
1094 28-09-2020 19:05:00 12.8 C 9.41 g/m*3 12.8 C 0 km/h
1095 28-09-2020 19:10:00 12.7 C 9.35 g/m*3 12.7 C 0 km/h
1096 28-09-2020 19:15:00 12.7 C 9.46 g/m*3 12.7 C 3.2 km/h
1097 28-09-2020 19:20:00 12.6 C 9.29 g/m*3 12.6 C 1.6 km/h
1098 28-09-2020 19:25:00 12.4 C 9.29 g/m*3 12.4 C 1.6 km/h
1099 28-09-2020 19:30:00 12.4 C 9.4 g/m*3 12.4 C 0 km/h
1100 28-09-2020 19:35:00 12.3 C 9.34 g/m*3 12.3 C 0 km/h
Sensor: Nr:Datum:Temp:Abs-Feuchte:Windchill:Wind:
Aussen-T/F 1101 28-09-2020 19:40:00 12.2 C 9.17 g/m*3 12.2 C 3.2 km/h
1102 28-09-2020 19:45:00 12.2 C 9.17 g/m*3 12.2 C 4.8 km/h
1103 28-09-2020 19:50:00 12.2 C 9.17 g/m*3 12.2 C 0 km/h
1104 28-09-2020 19:55:00 12.1 C 9.12 g/m*3 12.1 C 4.8 km/h
1105 28-09-2020 20:00:00 12.1 C 9.22 g/m*3 12.1 C 1.6 km/h
1106 28-09-2020 20:05:00 12.1 C 9.22 g/m*3 12.1 C 0 km/h
1107 28-09-2020 20:10:00 12.1 C 9.22 g/m*3 12.1 C 0 km/h
1108 28-09-2020 20:15:00 12 C 9.17 g/m*3 12 C 1.6 km/h
1109 28-09-2020 20:20:00 11.9 C 9.11 g/m*3 11.9 C 0 km/h
1110 28-09-2020 20:25:00 11.9 C 9.11 g/m*3 11.9 C 1.6 km/h
1111 28-09-2020 20:30:00 11.8 C 9.05 g/m*3 11.8 C 1.6 km/h
1112 28-09-2020 20:35:00 11.8 C 9.05 g/m*3 11.8 C 0 km/h
1113 28-09-2020 20:40:00 11.8 C 9.05 g/m*3 11.8 C 0 km/h
1114 28-09-2020 20:45:00 11.7 C 8.99 g/m*3 11.7 C 1.6 km/h
1115 28-09-2020 20:50:00 11.6 C 8.94 g/m*3 11.6 C 0 km/h
1116 28-09-2020 20:55:00 11.5 C 8.88 g/m*3 11.5 C 1.6 km/h
1117 28-09-2020 21:00:00 11.3 C 8.77 g/m*3 11.3 C 0 km/h
1118 28-09-2020 21:05:00 11.2 C 8.72 g/m*3 11.2 C 0 km/h
1119 28-09-2020 21:10:00 11.1 C 8.76 g/m*3 11.1 C 1.6 km/h
1120 28-09-2020 21:15:00 11 C 8.71 g/m*3 11 C 0 km/h
1121 28-09-2020 21:20:00 10.8 C 8.6 g/m*3 10.8 C 1.6 km/h
1122 28-09-2020 21:25:00 10.8 C 8.7 g/m*3 10.8 C 0 km/h
1123 28-09-2020 21:30:00 10.7 C 8.64 g/m*3 10.7 C 1.6 km/h
1124 28-09-2020 21:35:00 10.7 C 8.74 g/m*3 10.7 C 0 km/h
1125 28-09-2020 21:40:00 10.7 C 8.74 g/m*3 10.7 C 0 km/h
Sensor: Nr:Datum:Temp:Abs-Feuchte:Windchill:Wind:
Aussen-T/F 1126 28-09-2020 21:45:00 10.7 C 8.84 g/m*3 10.7 C 1.6 km/h
1127 28-09-2020 21:50:00 10.7 C 8.84 g/m*3 10.7 C 0 km/h
1128 28-09-2020 21:55:00 10.7 C 8.84 g/m*3 10.7 C 0 km/h
1129 28-09-2020 22:00:00 10.7 C 8.84 g/m*3 10.7 C 0 km/h
1130 28-09-2020 22:05:00 10.7 C 8.94 g/m*3 10.7 C 0 km/h
1131 28-09-2020 22:10:00 10.8 C 8.99 g/m*3 10.8 C 0 km/h
1132 28-09-2020 22:15:00 10.8 C 8.99 g/m*3 10.8 C 0 km/h
1133 28-09-2020 22:20:00 10.8 C 8.99 g/m*3 10.8 C 0 km/h
1134 28-09-2020 22:25:00 10.8 C 8.99 g/m*3 10.8 C 0 km/h
1135 28-09-2020 22:30:00 10.8 C 8.99 g/m*3 10.8 C 0 km/h
1136 28-09-2020 22:35:00 10.8 C 8.99 g/m*3 10.8 C 0 km/h
1137 28-09-2020 22:40:00 10.8 C 8.99 g/m*3 10.8 C 0 km/h
1138 28-09-2020 22:45:00 10.9 C 9.05 g/m*3 10.9 C 0 km/h
1139 28-09-2020 22:50:00 10.9 C 9.05 g/m*3 10.9 C 0 km/h
1140 28-09-2020 22:55:00 10.9 C 9.05 g/m*3 10.9 C 0 km/h
1141 28-09-2020 23:00:00 10.9 C 9.05 g/m*3 10.9 C 0 km/h
1142 28-09-2020 23:05:00 10.9 C 9.05 g/m*3 10.9 C 0 km/h
1143 28-09-2020 23:10:00 10.9 C 9.05 g/m*3 10.9 C 1.6 km/h
1144 28-09-2020 23:15:00 10.9 C 9.05 g/m*3 10.9 C 0 km/h
1145 28-09-2020 23:20:00 10.9 C 9.15 g/m*3 10.9 C 0 km/h
1146 28-09-2020 23:25:00 10.9 C 9.15 g/m*3 10.9 C 0 km/h
1147 28-09-2020 23:30:00 11 C 9.21 g/m*3 11 C 0 km/h
1148 28-09-2020 23:35:00 11 C 9.21 g/m*3 11 C 0 km/h
1149 28-09-2020 23:40:00 11 C 9.21 g/m*3 11 C 0 km/h
1150 28-09-2020 23:45:00 11 C 9.21 g/m*3 11 C 0 km/h
Sensor: Nr:Datum:Temp:Abs-Feuchte:Windchill:Wind:
Aussen-T/F 1151 28-09-2020 23:50:00 11 C 9.21 g/m*3 11 C 0 km/h
1152 28-09-2020 23:55:00 11 C 9.21 g/m*3 11 C 0 km/h
1153 29-09-2020 00:00:00 11 C 9.21 g/m*3 11 C 0 km/h
1154 29-09-2020 00:05:00 11 C 9.21 g/m*3 11 C 0 km/h
1155 29-09-2020 00:10:00 11 C 9.21 g/m*3 11 C 0 km/h
1156 29-09-2020 00:15:00 11 C 9.21 g/m*3 11 C 0 km/h
1157 29-09-2020 00:20:00 11 C 9.21 g/m*3 11 C 0 km/h
1158 29-09-2020 00:25:00 11 C 9.21 g/m*3 11 C 0 km/h
1159 29-09-2020 00:30:00 11 C 9.21 g/m*3 11 C 0 km/h
1160 29-09-2020 00:35:00 11 C 9.21 g/m*3 11 C 0 km/h
1161 29-09-2020 00:40:00 11 C 9.21 g/m*3 11 C 1.6 km/h
1162 29-09-2020 00:45:00 10.9 C 9.15 g/m*3 10.9 C 0 km/h
1163 29-09-2020 00:50:00 10.9 C 9.15 g/m*3 10.9 C 1.6 km/h
1164 29-09-2020 00:55:00 10.9 C 9.15 g/m*3 10.9 C 0 km/h
1165 29-09-2020 01:00:00 11 C 9.21 g/m*3 11 C 0 km/h
1166 29-09-2020 01:05:00 11 C 9.21 g/m*3 11 C 0 km/h
1167 29-09-2020 01:10:00 11 C 9.21 g/m*3 11 C 1.6 km/h
1168 29-09-2020 01:15:00 11 C 9.21 g/m*3 11 C 0 km/h
1169 29-09-2020 01:20:00 11 C 9.21 g/m*3 11 C 0 km/h
1170 29-09-2020 01:25:00 11 C 9.21 g/m*3 11 C 1.6 km/h
1171 29-09-2020 01:30:00 11 C 9.21 g/m*3 11 C 0 km/h
1172 29-09-2020 01:35:00 11 C 9.21 g/m*3 11 C 0 km/h
1173 29-09-2020 01:40:00 11 C 9.21 g/m*3 11 C 0 km/h
1174 29-09-2020 01:45:00 11.1 C 9.27 g/m*3 11.1 C 0 km/h
1175 29-09-2020 01:50:00 11.1 C 9.27 g/m*3 11.1 C 0 km/h
Sensor: Nr:Datum:Temp:Abs-Feuchte:Windchill:Wind:
Aussen-T/F 1176 29-09-2020 01:55:00 11.1 C 9.27 g/m*3 11.1 C 1.6 km/h
1177 29-09-2020 02:00:00 11 C 9.21 g/m*3 11 C 0 km/h
1178 29-09-2020 02:05:00 11.1 C 9.27 g/m*3 11.1 C 0 km/h
1179 29-09-2020 02:10:00 11.1 C 9.27 g/m*3 11.1 C 0 km/h
1180 29-09-2020 02:15:00 11.1 C 9.27 g/m*3 11.1 C 0 km/h
1181 29-09-2020 02:20:00 11.1 C 9.27 g/m*3 11.1 C 0 km/h
1182 29-09-2020 02:25:00 11.1 C 9.27 g/m*3 11.1 C 0 km/h
1183 29-09-2020 02:30:00 11.1 C 9.27 g/m*3 11.1 C 0 km/h
1184 29-09-2020 02:35:00 11.1 C 9.27 g/m*3 11.1 C 0 km/h
1185 29-09-2020 02:40:00 11.1 C 9.27 g/m*3 11.1 C 0 km/h
1186 29-09-2020 02:45:00 11.1 C 9.27 g/m*3 11.1 C 0 km/h
1187 29-09-2020 02:50:00 11.1 C 9.27 g/m*3 11.1 C 0 km/h
1188 29-09-2020 02:55:00 11.1 C 9.27 g/m*3 11.1 C 0 km/h
1189 29-09-2020 03:00:00 11.1 C 9.27 g/m*3 11.1 C 0 km/h
1190 29-09-2020 03:05:00 11.1 C 9.27 g/m*3 11.1 C 0 km/h
1191 29-09-2020 03:10:00 11.1 C 9.27 g/m*3 11.1 C 0 km/h
1192 29-09-2020 03:15:00 11.1 C 9.27 g/m*3 11.1 C 0 km/h
1193 29-09-2020 03:20:00 11.1 C 9.27 g/m*3 11.1 C 0 km/h
1194 29-09-2020 03:25:00 11.2 C 9.33 g/m*3 11.2 C 0 km/h
1195 29-09-2020 03:30:00 11.2 C 9.33 g/m*3 11.2 C 0 km/h
1196 29-09-2020 03:35:00 11.2 C 9.33 g/m*3 11.2 C 0 km/h
1197 29-09-2020 03:40:00 11.2 C 9.33 g/m*3 11.2 C 0 km/h
1198 29-09-2020 03:45:00 11.1 C 9.27 g/m*3 11.1 C 0 km/h
1199 29-09-2020 03:50:00 11.1 C 9.27 g/m*3 11.1 C 0 km/h
1200 29-09-2020 03:55:00 11.1 C 9.27 g/m*3 11.1 C 0 km/h
Sensor: Nr:Datum:Temp:Abs-Feuchte:Windchill:Wind:
Aussen-T/F 1201 29-09-2020 04:00:00 11.1 C 9.27 g/m*3 11.1 C 0 km/h
1202 29-09-2020 04:05:00 11.1 C 9.27 g/m*3 11.1 C 0 km/h
1203 29-09-2020 04:10:00 11.1 C 9.27 g/m*3 11.1 C 0 km/h
1204 29-09-2020 04:15:00 11.2 C 9.33 g/m*3 11.2 C 0 km/h
1205 29-09-2020 04:20:00 11.2 C 9.33 g/m*3 11.2 C 0 km/h
1206 29-09-2020 04:25:00 11.2 C 9.33 g/m*3 11.2 C 0 km/h
1207 29-09-2020 04:30:00 11.2 C 9.33 g/m*3 11.2 C 0 km/h
1208 29-09-2020 04:35:00 11.2 C 9.33 g/m*3 11.2 C 0 km/h
1209 29-09-2020 04:40:00 11.2 C 9.43 g/m*3 11.2 C 0 km/h
1210 29-09-2020 04:45:00 11.3 C 9.49 g/m*3 11.3 C 0 km/h
1211 29-09-2020 04:50:00 11.3 C 9.49 g/m*3 11.3 C 0 km/h
1212 29-09-2020 04:55:00 11.3 C 9.49 g/m*3 11.3 C 0 km/h
1213 29-09-2020 05:00:00 11.3 C 9.49 g/m*3 11.3 C 0 km/h
1214 29-09-2020 05:05:00 11.3 C 9.49 g/m*3 11.3 C 0 km/h
1215 29-09-2020 05:10:00 11.3 C 9.49 g/m*3 11.3 C 0 km/h
1216 29-09-2020 05:15:00 11.3 C 9.49 g/m*3 11.3 C 0 km/h
1217 29-09-2020 05:20:00 11.3 C 9.49 g/m*3 11.3 C 0 km/h
1218 29-09-2020 05:25:00 11.3 C 9.49 g/m*3 11.3 C 0 km/h
1219 29-09-2020 05:30:00 11.3 C 9.49 g/m*3 11.3 C 0 km/h
1220 29-09-2020 05:35:00 11.3 C 9.49 g/m*3 11.3 C 0 km/h
1221 29-09-2020 05:40:00 11.3 C 9.49 g/m*3 11.3 C 0 km/h
1222 29-09-2020 05:45:00 11.3 C 9.49 g/m*3 11.3 C 0 km/h
1223 29-09-2020 05:50:00 11.3 C 9.49 g/m*3 11.3 C 0 km/h
1224 29-09-2020 05:55:00 11.3 C 9.49 g/m*3 11.3 C 0 km/h
1225 29-09-2020 06:00:00 11.3 C 9.49 g/m*3 11.3 C 0 km/h
Sensor: Nr:Datum:Temp:Abs-Feuchte:Windchill:Wind:
Aussen-T/F 1226 29-09-2020 06:05:00 11.4 C 9.55 g/m*3 11.4 C 0 km/h
1227 29-09-2020 06:10:00 11.4 C 9.55 g/m*3 11.4 C 0 km/h
1228 29-09-2020 06:15:00 11.4 C 9.55 g/m*3 11.4 C 0 km/h
1229 29-09-2020 06:20:00 11.4 C 9.55 g/m*3 11.4 C 0 km/h
1230 29-09-2020 06:25:00 11.4 C 9.55 g/m*3 11.4 C 0 km/h
1231 29-09-2020 06:30:00 11.4 C 9.55 g/m*3 11.4 C 0 km/h
1232 29-09-2020 06:35:00 11.4 C 9.55 g/m*3 11.4 C 0 km/h
1233 29-09-2020 06:40:00 11.4 C 9.55 g/m*3 11.4 C 0 km/h
1234 29-09-2020 06:45:00 11.4 C 9.55 g/m*3 11.4 C 0 km/h
1235 29-09-2020 06:50:00 11.4 C 9.55 g/m*3 11.4 C 0 km/h
1236 29-09-2020 06:55:00 11.5 C 9.61 g/m*3 11.5 C 0 km/h
1237 29-09-2020 07:00:00 11.5 C 9.61 g/m*3 11.5 C 0 km/h
1238 29-09-2020 07:05:00 11.5 C 9.61 g/m*3 11.5 C 0 km/h
1239 29-09-2020 07:10:00 11.5 C 9.61 g/m*3 11.5 C 0 km/h
1240 29-09-2020 07:15:00 11.6 C 9.77 g/m*3 11.6 C 0 km/h
1241 29-09-2020 07:20:00 11.6 C 9.77 g/m*3 11.6 C 0 km/h
1242 29-09-2020 07:25:00 11.6 C 9.77 g/m*3 11.6 C 0 km/h
1243 29-09-2020 07:30:00 11.6 C 9.77 g/m*3 11.6 C 0 km/h
1244 29-09-2020 07:35:00 11.6 C 9.77 g/m*3 11.6 C 0 km/h
1245 29-09-2020 07:40:00 11.6 C 9.77 g/m*3 11.6 C 0 km/h
1246 29-09-2020 07:45:00 11.6 C 9.77 g/m*3 11.6 C 0 km/h
1247 29-09-2020 07:50:00 11.7 C 9.83 g/m*3 11.7 C 0 km/h
1248 29-09-2020 07:55:00 11.7 C 9.83 g/m*3 11.7 C 0 km/h
1249 29-09-2020 08:00:00 11.7 C 9.83 g/m*3 11.7 C 0 km/h
1250 29-09-2020 08:05:00 11.7 C 9.83 g/m*3 11.7 C 0 km/h
Sensor: Nr:Datum:Temp:Abs-Feuchte:Windchill:Wind:
Aussen-T/F 1251 29-09-2020 08:10:00 11.7 C 9.83 g/m*3 11.7 C 0 km/h
1252 29-09-2020 08:15:00 11.7 C 9.83 g/m*3 11.7 C 0 km/h
1253 29-09-2020 08:20:00 11.7 C 9.83 g/m*3 11.7 C 0 km/h
1254 29-09-2020 08:25:00 11.8 C 9.89 g/m*3 11.8 C 0 km/h
1255 29-09-2020 08:30:00 11.8 C 10 g/m*3 11.8 C 0 km/h
1256 29-09-2020 08:35:00 11.9 C 10.06 g/m*3 11.9 C 0 km/h
1257 29-09-2020 08:40:00 11.9 C 10.06 g/m*3 11.9 C 0 km/h
1258 29-09-2020 08:45:00 11.9 C 10.06 g/m*3 11.9 C 0 km/h
1259 29-09-2020 08:50:00 12 C 10.12 g/m*3 12 C 0 km/h
1260 29-09-2020 08:55:00 12 C 10.12 g/m*3 12 C 0 km/h
1261 29-09-2020 09:00:00 12 C 10.12 g/m*3 12 C 0 km/h
1262 29-09-2020 09:05:00 12.1 C 10.19 g/m*3 12.1 C 0 km/h
1263 29-09-2020 09:10:00 12.1 C 10.19 g/m*3 12.1 C 0 km/h
1264 29-09-2020 09:15:00 12.1 C 10.19 g/m*3 12.1 C 1.6 km/h
1265 29-09-2020 09:20:00 12.1 C 10.19 g/m*3 12.1 C 0 km/h
1266 29-09-2020 09:25:00 12.2 C 10.25 g/m*3 12.2 C 3.2 km/h
1267 29-09-2020 09:30:00 12.2 C 10.25 g/m*3 12.2 C 3.2 km/h
1268 29-09-2020 09:35:00 12.2 C 10.25 g/m*3 12.2 C 1.6 km/h
1269 29-09-2020 09:40:00 12.3 C 10.32 g/m*3 12.3 C 4.8 km/h
1270 29-09-2020 09:45:00 12.3 C 10.42 g/m*3 12.3 C 0 km/h
1271 29-09-2020 09:50:00 12.4 C 10.49 g/m*3 12.4 C 3.2 km/h
1272 29-09-2020 09:55:00 12.4 C 10.49 g/m*3 12.4 C 1.6 km/h
1273 29-09-2020 10:00:00 12.4 C 10.49 g/m*3 12.4 C 1.6 km/h
1274 29-09-2020 10:05:00 12.5 C 10.55 g/m*3 12.5 C 1.6 km/h
1275 29-09-2020 10:10:00 12.6 C 10.62 g/m*3 12.6 C 3.2 km/h
Sensor: Nr:Datum:Temp:Abs-Feuchte:Windchill:Wind:
Aussen-T/F 1276 29-09-2020 10:15:00 12.6 C 10.62 g/m*3 12.6 C 1.6 km/h
1277 29-09-2020 10:20:00 12.6 C 10.62 g/m*3 12.6 C 4.8 km/h
1278 29-09-2020 10:25:00 12.7 C 10.69 g/m*3 12.7 C 4.8 km/h
1279 29-09-2020 10:30:00 12.7 C 10.69 g/m*3 12.7 C 3.2 km/h
1280 29-09-2020 10:35:00 12.7 C 10.58 g/m*3 12.7 C 4.8 km/h
1281 29-09-2020 10:40:00 12.7 C 10.58 g/m*3 12.7 C 6.4 km/h
1282 29-09-2020 10:45:00 12.7 C 10.58 g/m*3 12.7 C 3.2 km/h
1283 29-09-2020 10:50:00 12.8 C 10.64 g/m*3 12.8 C 3.2 km/h
1284 29-09-2020 10:55:00 12.8 C 10.64 g/m*3 12.8 C 3.2 km/h
1285 29-09-2020 11:00:00 12.9 C 10.71 g/m*3 12.9 C 1.6 km/h
1286 29-09-2020 11:05:00 12.9 C 10.71 g/m*3 12.9 C 0 km/h
1287 29-09-2020 11:10:00 13 C 10.77 g/m*3 13 C 1.6 km/h
1288 29-09-2020 11:15:00 13.1 C 10.84 g/m*3 13.1 C 3.2 km/h
1289 29-09-2020 11:20:00 13.1 C 10.84 g/m*3 13.1 C 1.6 km/h
1290 29-09-2020 11:25:00 13.1 C 10.84 g/m*3 13.1 C 3.2 km/h
1291 29-09-2020 11:30:00 13.2 C 10.91 g/m*3 13.2 C 6.4 km/h
1292 29-09-2020 11:35:00 13.3 C 10.98 g/m*3 13.3 C 1.6 km/h
1293 29-09-2020 11:40:00 13.3 C 11.09 g/m*3 13.3 C 4.8 km/h
1294 29-09-2020 11:45:00 13.4 C 11.16 g/m*3 13.4 C 6.4 km/h
1295 29-09-2020 11:50:00 13.4 C 11.04 g/m*3 13.4 C 3.2 km/h
1296 29-09-2020 11:55:00 13.5 C 11.11 g/m*3 13.5 C 4.8 km/h
1297 29-09-2020 12:00:00 13.5 C 11.11 g/m*3 13.5 C 4.8 km/h
1298 29-09-2020 12:05:00 13.6 C 11.18 g/m*3 13.6 C 3.2 km/h
1299 29-09-2020 12:10:00 13.6 C 11.18 g/m*3 13.6 C 4.8 km/h
1300 29-09-2020 12:15:00 13.6 C 11.18 g/m*3 13.6 C 6.4 km/h
Sensor: Nr:Datum:Temp:Abs-Feuchte:Windchill:Wind:
Aussen-T/F 1301 29-09-2020 12:20:00 13.7 C 11.25 g/m*3 13.7 C 4.8 km/h
1302 29-09-2020 12:25:00 13.7 C 11.25 g/m*3 13.7 C 6.4 km/h
1303 29-09-2020 12:30:00 13.7 C 11.25 g/m*3 13.7 C 6.4 km/h
1304 29-09-2020 12:35:00 13.8 C 11.32 g/m*3 13.8 C 3.2 km/h
1305 29-09-2020 12:40:00 13.8 C 11.2 g/m*3 13.8 C 6.4 km/h
1306 29-09-2020 12:45:00 13.9 C 11.27 g/m*3 13.9 C 4.8 km/h
1307 29-09-2020 12:50:00 13.9 C 11.27 g/m*3 13.9 C 4.8 km/h
1308 29-09-2020 12:55:00 13.9 C 11.27 g/m*3 13.9 C 4.8 km/h
1309 29-09-2020 13:00:00 13.9 C 11.15 g/m*3 13.9 C 8.1 km/h
1310 29-09-2020 13:05:00 14 C 11.22 g/m*3 14 C 4.8 km/h
1311 29-09-2020 13:10:00 13.9 C 11.15 g/m*3 13.9 C 6.4 km/h
1312 29-09-2020 13:15:00 14 C 11.34 g/m*3 14 C 4.8 km/h
1313 29-09-2020 13:20:00 14.1 C 11.41 g/m*3 14.1 C 4.8 km/h
1314 29-09-2020 13:25:00 14.1 C 11.41 g/m*3 14.1 C 4.8 km/h
1315 29-09-2020 13:30:00 14.2 C 11.48 g/m*3 14.2 C 6.4 km/h
1316 29-09-2020 13:35:00 14.2 C 11.48 g/m*3 14.2 C 6.4 km/h
1317 29-09-2020 13:40:00 14.2 C 11.48 g/m*3 14.2 C 9.7 km/h
1318 29-09-2020 13:45:00 14.2 C 11.48 g/m*3 14.2 C 6.4 km/h
1319 29-09-2020 13:50:00 14.2 C 11.48 g/m*3 14.2 C 6.4 km/h
1320 29-09-2020 13:55:00 14.2 C 11.48 g/m*3 14.2 C 3.2 km/h
1321 29-09-2020 14:00:00 14.2 C 11.48 g/m*3 14.2 C 6.4 km/h
1322 29-09-2020 14:05:00 14.2 C 11.48 g/m*3 14.2 C 4.8 km/h
1323 29-09-2020 14:10:00 14.2 C 11.6 g/m*3 14.2 C 4.8 km/h
1324 29-09-2020 14:15:00 14.3 C 11.67 g/m*3 14.3 C 8.1 km/h
1325 29-09-2020 14:20:00 14.2 C 11.48 g/m*3 14.2 C 4.8 km/h
Sensor: Nr:Datum:Temp:Abs-Feuchte:Windchill:Wind:
Aussen-T/F 1326 29-09-2020 14:25:00 14.3 C 11.67 g/m*3 14.3 C 8.1 km/h
1327 29-09-2020 14:30:00 14.3 C 11.67 g/m*3 14.3 C 4.8 km/h
1328 29-09-2020 14:35:00 14.4 C 11.74 g/m*3 14.4 C 4.8 km/h
1329 29-09-2020 14:40:00 14.4 C 11.74 g/m*3 14.4 C 6.4 km/h
1330 29-09-2020 14:45:00 14.4 C 11.62 g/m*3 14.4 C 9.7 km/h
1331 29-09-2020 14:50:00 14.4 C 11.62 g/m*3 14.4 C 6.4 km/h
1332 29-09-2020 14:55:00 14.4 C 11.62 g/m*3 14.4 C 8.1 km/h
1333 29-09-2020 15:00:00 14.4 C 11.62 g/m*3 14.4 C 9.7 km/h
1334 29-09-2020 15:05:00 14.5 C 11.82 g/m*3 14.5 C 6.4 km/h
1335 29-09-2020 15:10:00 14.5 C 11.69 g/m*3 14.5 C 8.1 km/h
1336 29-09-2020 15:15:00 14.4 C 11.62 g/m*3 14.4 C 8.1 km/h
1337 29-09-2020 15:20:00 14.4 C 11.62 g/m*3 14.4 C 6.4 km/h
1338 29-09-2020 15:25:00 14.4 C 11.62 g/m*3 14.4 C 6.4 km/h
1339 29-09-2020 15:30:00 14.3 C 11.55 g/m*3 14.3 C 8.1 km/h
1340 29-09-2020 15:35:00 14.2 C 11.48 g/m*3 14.2 C 8.1 km/h
1341 29-09-2020 15:40:00 14.1 C 11.41 g/m*3 14.1 C 9.7 km/h
1342 29-09-2020 15:45:00 14.1 C 11.41 g/m*3 14.1 C 8.1 km/h
1343 29-09-2020 15:50:00 14 C 11.34 g/m*3 14 C 6.4 km/h
1344 29-09-2020 15:55:00 13.9 C 11.27 g/m*3 13.9 C 9.7 km/h
1345 29-09-2020 16:00:00 13.8 C 11.2 g/m*3 13.8 C 8.1 km/h
1346 29-09-2020 16:05:00 13.8 C 11.2 g/m*3 13.8 C 3.2 km/h
1347 29-09-2020 16:10:00 13.7 C 11.13 g/m*3 13.7 C 6.4 km/h
1348 29-09-2020 16:15:00 13.6 C 11.06 g/m*3 13.6 C 6.4 km/h
1349 29-09-2020 16:20:00 13.6 C 11.06 g/m*3 13.6 C 6.4 km/h
1350 29-09-2020 16:25:00 13.4 C 10.93 g/m*3 13.4 C 8.1 km/h
Sensor: Nr:Datum:Temp:Abs-Feuchte:Windchill:Wind:
Aussen-T/F 1351 29-09-2020 16:30:00 13.3 C 10.86 g/m*3 13.3 C 4.8 km/h
1352 29-09-2020 16:35:00 13.2 C 10.79 g/m*3 13.2 C 4.8 km/h
1353 29-09-2020 16:40:00 13.2 C 10.79 g/m*3 13.2 C 4.8 km/h
1354 29-09-2020 16:45:00 13.2 C 10.91 g/m*3 13.2 C 3.2 km/h
1355 29-09-2020 16:50:00 13.2 C 10.91 g/m*3 13.2 C 3.2 km/h
1356 29-09-2020 16:55:00 13.2 C 10.91 g/m*3 13.2 C 3.2 km/h
1357 29-09-2020 17:00:00 13.2 C 10.91 g/m*3 13.2 C 8.1 km/h
1358 29-09-2020 17:05:00 13.1 C 10.84 g/m*3 13.1 C 3.2 km/h
1359 29-09-2020 17:10:00 13.1 C 10.84 g/m*3 13.1 C 0 km/h
1360 29-09-2020 17:15:00 13.1 C 10.84 g/m*3 13.1 C 0 km/h
1361 29-09-2020 17:20:00 13.1 C 10.84 g/m*3 13.1 C 1.6 km/h
1362 29-09-2020 17:25:00 13.1 C 10.84 g/m*3 13.1 C 0 km/h
1363 29-09-2020 17:30:00 13.1 C 10.84 g/m*3 13.1 C 1.6 km/h
1364 29-09-2020 17:35:00 13.1 C 10.84 g/m*3 13.1 C 1.6 km/h
1365 29-09-2020 17:40:00 13.2 C 10.91 g/m*3 13.2 C 3.2 km/h
1366 29-09-2020 17:45:00 13.2 C 10.91 g/m*3 13.2 C 3.2 km/h
1367 29-09-2020 17:50:00 13.3 C 10.98 g/m*3 13.3 C 1.6 km/h
1368 29-09-2020 17:55:00 13.3 C 10.98 g/m*3 13.3 C 1.6 km/h
1369 29-09-2020 18:00:00 13.3 C 10.98 g/m*3 13.3 C 1.6 km/h
1370 29-09-2020 18:05:00 13.3 C 10.98 g/m*3 13.3 C 0 km/h
1371 29-09-2020 18:10:00 13.3 C 10.98 g/m*3 13.3 C 1.6 km/h
1372 29-09-2020 18:15:00 13.3 C 10.98 g/m*3 13.3 C 1.6 km/h
1373 29-09-2020 18:20:00 13.2 C 10.91 g/m*3 13.2 C 1.6 km/h
1374 29-09-2020 18:25:00 13.2 C 10.91 g/m*3 13.2 C 1.6 km/h
1375 29-09-2020 18:30:00 13.2 C 10.91 g/m*3 13.2 C 1.6 km/h
Sensor: Nr:Datum:Temp:Abs-Feuchte:Windchill:Wind:
Aussen-T/F 1376 29-09-2020 18:35:00 13.2 C 10.91 g/m*3 13.2 C 0 km/h
1377 29-09-2020 18:40:00 13.2 C 10.91 g/m*3 13.2 C 3.2 km/h
1378 29-09-2020 18:45:00 13.2 C 10.91 g/m*3 13.2 C 1.6 km/h
1379 29-09-2020 18:50:00 13.2 C 10.91 g/m*3 13.2 C 3.2 km/h
1380 29-09-2020 18:55:00 13 C 10.77 g/m*3 13 C 4.8 km/h
1381 29-09-2020 19:00:00 12.9 C 10.71 g/m*3 12.9 C 4.8 km/h
1382 29-09-2020 19:05:00 12.8 C 10.64 g/m*3 12.8 C 6.4 km/h
1383 29-09-2020 19:10:00 12.7 C 10.58 g/m*3 12.7 C 8.1 km/h
1384 29-09-2020 19:15:00 12.7 C 10.58 g/m*3 12.7 C 4.8 km/h
1385 29-09-2020 19:20:00 12.6 C 10.51 g/m*3 12.6 C 3.2 km/h
1386 29-09-2020 19:25:00 12.4 C 10.38 g/m*3 12.4 C 6.4 km/h
1387 29-09-2020 19:30:00 12.3 C 10.32 g/m*3 12.3 C 4.8 km/h
1388 29-09-2020 19:35:00 12.2 C 10.25 g/m*3 12.2 C 4.8 km/h
1389 29-09-2020 19:40:00 12.2 C 10.25 g/m*3 12.2 C 4.8 km/h
1390 29-09-2020 19:45:00 12.1 C 10.19 g/m*3 12.1 C 1.6 km/h
1391 29-09-2020 19:50:00 12.1 C 10.19 g/m*3 12.1 C 3.2 km/h
1392 29-09-2020 19:55:00 12.1 C 10.19 g/m*3 12.1 C 1.6 km/h
1393 29-09-2020 20:00:00 11.9 C 10.06 g/m*3 11.9 C 0 km/h
1394 29-09-2020 20:05:00 11.9 C 10.06 g/m*3 11.9 C 0 km/h
1395 29-09-2020 20:10:00 11.8 C 10 g/m*3 11.8 C 0 km/h
1396 29-09-2020 20:15:00 11.7 C 9.94 g/m*3 11.7 C 1.6 km/h
1397 29-09-2020 20:20:00 11.6 C 9.87 g/m*3 11.6 C 0 km/h
1398 29-09-2020 20:25:00 11.6 C 9.87 g/m*3 11.6 C 0 km/h
1399 29-09-2020 20:30:00 11.5 C 9.81 g/m*3 11.5 C 0 km/h
1400 29-09-2020 20:35:00 11.4 C 9.75 g/m*3 11.4 C 0 km/h
Sensor: Nr:Datum:Temp:Abs-Feuchte:Windchill:Wind:
Aussen-T/F 1401 29-09-2020 20:40:00 11.4 C 9.75 g/m*3 11.4 C 0 km/h
1402 29-09-2020 20:45:00 11.3 C 9.69 g/m*3 11.3 C 0 km/h
1403 29-09-2020 20:50:00 11.3 C 9.69 g/m*3 11.3 C 0 km/h
1404 29-09-2020 20:55:00 11.2 C 9.63 g/m*3 11.2 C 0 km/h
1405 29-09-2020 21:00:00 11.2 C 9.63 g/m*3 11.2 C 0 km/h
1406 29-09-2020 21:05:00 11.1 C 9.57 g/m*3 11.1 C 0 km/h
1407 29-09-2020 21:10:00 11 C 9.51 g/m*3 11 C 0 km/h
1408 29-09-2020 21:15:00 10.9 C 9.45 g/m*3 10.9 C 0 km/h
1409 29-09-2020 21:20:00 10.8 C 9.39 g/m*3 10.8 C 0 km/h
1410 29-09-2020 21:25:00 10.7 C 9.33 g/m*3 10.7 C 0 km/h
1411 29-09-2020 21:30:00 10.7 C 9.33 g/m*3 10.7 C 0 km/h
1412 29-09-2020 21:35:00 10.6 C 9.27 g/m*3 10.6 C 0 km/h
1413 29-09-2020 21:40:00 10.5 C 9.21 g/m*3 10.5 C 0 km/h
1414 29-09-2020 21:45:00 10.4 C 9.16 g/m*3 10.4 C 0 km/h
1415 29-09-2020 21:50:00 10.3 C 9.1 g/m*3 10.3 C 0 km/h
1416 29-09-2020 21:55:00 10.3 C 9.1 g/m*3 10.3 C 0 km/h
1417 29-09-2020 22:00:00 10.3 C 9.19 g/m*3 10.3 C 0 km/h
1418 29-09-2020 22:05:00 10.3 C 9.19 g/m*3 10.3 C 0 km/h
1419 29-09-2020 22:10:00 10.3 C 9.19 g/m*3 10.3 C 0 km/h
1420 29-09-2020 22:15:00 10.3 C 9.19 g/m*3 10.3 C 0 km/h
1421 29-09-2020 22:20:00 10.2 C 9.14 g/m*3 10.2 C 0 km/h
1422 29-09-2020 22:25:00 10.1 C 8.98 g/m*3 10.1 C 0 km/h
1423 29-09-2020 22:30:00 10.1 C 9.08 g/m*3 10.1 C 0 km/h
1424 29-09-2020 22:35:00 10.2 C 9.14 g/m*3 10.2 C 0 km/h
1425 29-09-2020 22:40:00 10.2 C 9.14 g/m*3 10.2 C 0 km/h
Sensor: Nr:Datum:Temp:Abs-Feuchte:Windchill:Wind:
Aussen-T/F 1426 29-09-2020 22:45:00 10.3 C 9.19 g/m*3 10.3 C 0 km/h
1427 29-09-2020 22:50:00 10.3 C 9.19 g/m*3 10.3 C 0 km/h
1428 29-09-2020 22:55:00 10.3 C 9.19 g/m*3 10.3 C 0 km/h
1429 29-09-2020 23:00:00 10.3 C 9.19 g/m*3 10.3 C 0 km/h
1430 29-09-2020 23:05:00 10.3 C 9.19 g/m*3 10.3 C 0 km/h
1431 29-09-2020 23:10:00 10.3 C 9.19 g/m*3 10.3 C 0 km/h
1432 29-09-2020 23:15:00 10.3 C 9.19 g/m*3 10.3 C 0 km/h
1433 29-09-2020 23:20:00 10.4 C 9.25 g/m*3 10.4 C 0 km/h
1434 29-09-2020 23:25:00 10.4 C 9.25 g/m*3 10.4 C 0 km/h
1435 29-09-2020 23:30:00 10.5 C 9.31 g/m*3 10.5 C 0 km/h
1436 29-09-2020 23:35:00 10.6 C 9.37 g/m*3 10.6 C 0 km/h
1437 29-09-2020 23:40:00 10.7 C 9.43 g/m*3 10.7 C 0 km/h
1438 29-09-2020 23:45:00 10.7 C 9.53 g/m*3 10.7 C 0 km/h
1439 29-09-2020 23:50:00 10.7 C 9.53 g/m*3 10.7 C 0 km/h
1440 29-09-2020 23:55:00 10.8 C 9.59 g/m*3 10.8 C 0 km/h

Legende:
   Min
   Max


Maximal/Minimal-Werte vom 25.09.2020 - 29.09.2020

Sensor Min Max Avg
Temp
(Aussen-T/F)
8.8 °C
27-09-2020  01:25:00
14.6 °C
25-09-2020  16:40:00
11.51 °C
Abs-Feuchte
(Aussen-T/F)
7.38 g/m*3
26-09-2020  05:20:00
11.82 g/m*3
29-09-2020  15:05:00
9.18 g/m*3
Windchill
(Aussen-T/F)
6.37 C
26-09-2020  06:50:00
14.6 C
25-09-2020  16:40:00
11.28 C

Die Daten stammen von einer Davis Vantage Pro 2 Wetter-Station und werden unter Linux mit der Software wview2wettercgi und aufbereitet. Alle Angaben erfolgen ohne Gewähr für ihre Vollständigkeit oder Richtigkeit.
Kontakt: Rainer Krienke krienke@uni-koblenz.de . Meine Webseiten an der Uni Koblenz oder privat.
Version: $Revision: 0.78 $